Observation data for South Plains 3ENE on 07/02/2020      Previous  Date       Current Mesonet Observations  Soil Data  Daily Summary Page  Observations in Plain Language
KSP2 020500Z 19015KT 26/16 A2998 RMK A01 T02610157  RH  053%=      5-min Rain = 0
KSP2 020501Z 19014KT 26/16 A2998 RMK A01 T02610157  RH  053%=      5-min Rain = 0
KSP2 020502Z 19012G17KT 26/16 A2998 RMK A01 T02610156  RH  052%=      5-min Rain = 0
KSP2 020503Z 19016KT 26/16 A2998 RMK A01 T02610156  RH  052%=      5-min Rain = 0
KSP2 020504Z 18015KT 26/16 A2998 RMK A01 T02610156  RH  052%=      5-min Rain = 0
KSP2 020505Z 18014G20KT 26/16 A2999 RMK A01 T02610156  RH  052%=      5-min Rain = 0
KSP2 020506Z 19014KT 26/16 A2998 RMK A01 T02610156  RH  052%=      5-min Rain = 0
KSP2 020507Z 19015KT 26/16 A2998 RMK A01 T02610156  RH  052%=      5-min Rain = 0
KSP2 020508Z 19017KT 26/16 A2998 RMK A01 T02610155  RH  052%=      5-min Rain = 0
KSP2 020509Z 19014KT 26/15 A2999 RMK A01 T02610154  RH  052%=      5-min Rain = 0
KSP2 020510Z 18017KT 26/16 A2998 RMK A01 T02610155  RH  052%=      5-min Rain = 0
KSP2 020511Z 19014KT 26/16 A2998 RMK A01 T02610155  RH  052%=      5-min Rain = 0
KSP2 020512Z 19013KT 26/16 A2998 RMK A01 T02610155  RH  052%=      5-min Rain = 0
KSP2 020513Z 19017G22KT 26/15 A2998 RMK A01 T02600154  RH  052%=      5-min Rain = 0
KSP2 020514Z 19013KT 26/15 A2998 RMK A01 T02600154  RH  052%=      5-min Rain = 0
KSP2 020515Z 19015KT 26/15 A2998 RMK A01 T02600154  RH  052%=      5-min Rain = 0
KSP2 020516Z 19014KT 26/15 A2998 RMK A01 T02600154  RH  052%=      5-min Rain = 0
KSP2 020517Z 19017KT 26/15 A2998 RMK A01 T02590153  RH  052%=      5-min Rain = 0
KSP2 020518Z 19014G19KT 26/15 A2998 RMK A01 T02600152  RH  052%=      5-min Rain = 0
KSP2 020519Z 19012KT 26/15 A2998 RMK A01 T02600153  RH  052%=      5-min Rain = 0
KSP2 020520Z 19015G20KT 26/15 A2998 RMK A01 T02600153  RH  052%=      5-min Rain = 0
KSP2 020521Z 19017KT 26/15 A2998 RMK A01 T02600152  RH  052%=      5-min Rain = 0
KSP2 020522Z 19016KT 26/15 A2998 RMK A01 T02600152  RH  051%=      5-min Rain = 0
KSP2 020523Z 19015KT 26/15 A2998 RMK A01 T02600151  RH  051%=      5-min Rain = 0
KSP2 020524Z 19013G18KT 26/15 A2998 RMK A01 T02600150  RH  051%=      5-min Rain = 0
KSP2 020525Z 19013KT 26/15 A2998 RMK A01 T02600151  RH  051%=      5-min Rain = 0
KSP2 020526Z 20014G19KT 26/15 A2998 RMK A01 T02590150  RH  051%=      5-min Rain = 0
KSP2 020527Z 19015KT 26/15 A2998 RMK A01 T02600150  RH  051%=      5-min Rain = 0
KSP2 020528Z 19015KT 26/15 A2998 RMK A01 T02600150  RH  051%=      5-min Rain = 0
KSP2 020529Z 20015KT 26/15 A2998 RMK A01 T02600149  RH  050%=      5-min Rain = 0
KSP2 020530Z 19015KT 26/15 A2998 RMK A01 T02600148  RH  050%=      5-min Rain = 0
KSP2 020531Z 19017KT 26/15 A2998 RMK A01 T02600148  RH  050%=      5-min Rain = 0
KSP2 020532Z 19012KT 26/15 A2998 RMK A01 T02600147  RH  050%=      5-min Rain = 0
KSP2 020533Z 19013G19KT 26/15 A2998 RMK A01 T02600148  RH  050%=      5-min Rain = 0
KSP2 020534Z 19015G20KT 26/15 A2998 RMK A01 T02600147  RH  050%=      5-min Rain = 0
KSP2 020535Z 19015KT 26/15 A2998 RMK A01 T02600146  RH  050%=      5-min Rain = 0
KSP2 020536Z 19017KT 26/15 A2998 RMK A01 T02600146  RH  049%=      5-min Rain = 0
KSP2 020537Z 19016KT 26/15 A2998 RMK A01 T02610145  RH  049%=      5-min Rain = 0
KSP2 020538Z 19011KT 26/15 A2998 RMK A01 T02610145  RH  049%=      5-min Rain = 0
KSP2 020539Z 20014G19KT 26/15 A2998 RMK A01 T02610145  RH  049%=      5-min Rain = 0
KSP2 020540Z 19015KT 26/15 A2998 RMK A01 T02610145  RH  049%=      5-min Rain = 0
KSP2 020541Z 20015KT 26/14 A2998 RMK A01 T02610144  RH  049%=      5-min Rain = 0
KSP2 020542Z 19014KT 26/14 A2998 RMK A01 T02610144  RH  049%=      5-min Rain = 0
KSP2 020543Z 19012KT 26/14 A2998 RMK A01 T02610144  RH  049%=      5-min Rain = 0
KSP2 020544Z 20012KT 26/14 A2998 RMK A01 T02610144  RH  049%=      5-min Rain = 0
KSP2 020545Z 20013G19KT 26/14 A2998 RMK A01 T02600144  RH  049%=      5-min Rain = 0
KSP2 020546Z 20014KT 26/14 A2998 RMK A01 T02600143  RH  048%=      5-min Rain = 0
KSP2 020547Z 19012KT 26/14 A2998 RMK A01 T02600142  RH  048%=      5-min Rain = 0
KSP2 020548Z 19013KT 26/14 A2998 RMK A01 T02600142  RH  048%=      5-min Rain = 0
KSP2 020549Z 19012KT 26/14 A2998 RMK A01 T02610143  RH  048%=      5-min Rain = 0
KSP2 020550Z 19009KT 26/14 A2998 RMK A01 T02600142  RH  048%=      5-min Rain = 0
KSP2 020551Z 19011KT 26/14 A2998 RMK A01 T02600142  RH  048%=      5-min Rain = 0
KSP2 020552Z 19011KT 26/14 A2998 RMK A01 T02590142  RH  048%=      5-min Rain = 0
KSP2 020553Z 19010KT 26/14 A2998 RMK A01 T02600142  RH  048%=      5-min Rain = 0
KSP2 020554Z 19013KT 26/14 A2998 RMK A01 T02600142  RH  048%=      5-min Rain = 0
KSP2 020555Z 19011KT 26/14 A2998 RMK A01 T02600142  RH  048%=      5-min Rain = 0
KSP2 020556Z 19012KT 26/14 A2998 RMK A01 T02600142  RH  048%=      5-min Rain = 0
KSP2 020557Z 19009KT 26/14 A2998 RMK A01 T02600142  RH  048%=      5-min Rain = 0
KSP2 020558Z 19010KT 26/14 A2998 RMK A01 T02600142  RH  048%=      5-min Rain = 0
KSP2 020559Z 19012KT 26/14 A2998 RMK A01 T02600142  RH  048%=      5-min Rain = 0
KSP2 020600Z 19012KT 26/14 A2998 RMK A01 T02600142  RH  048%=      5-min Rain = 0
KSP2 020601Z 19013KT 26/14 A2998 RMK A01 T02600142  RH  048%=      5-min Rain = 0
KSP2 020602Z 19010KT 26/14 A2998 RMK A01 T02600142  RH  048%=      5-min Rain = 0
KSP2 020603Z 19013KT 26/14 A2998 RMK A01 T02600142  RH  048%=      5-min Rain = 0
KSP2 020604Z 19012KT 26/14 A2998 RMK A01 T02600142  RH  048%=      5-min Rain = 0
KSP2 020605Z 19016KT 26/14 A2998 RMK A01 T02600141  RH  048%=      5-min Rain = 0
KSP2 020606Z 19016KT 26/14 A2998 RMK A01 T02600142  RH  048%=      5-min Rain = 0
KSP2 020607Z 19013KT 26/14 A2998 RMK A01 T02610142  RH  048%=      5-min Rain = 0
KSP2 020608Z 19012KT 26/14 A2998 RMK A01 T02610142  RH  048%=      5-min Rain = 0
KSP2 020609Z 19012G17KT 26/14 A2998 RMK A01 T02600141  RH  048%=      5-min Rain = 0
KSP2 020610Z 19015KT 26/14 A2998 RMK A01 T02610141  RH  048%=      5-min Rain = 0
KSP2 020611Z 19015G20KT 26/14 A2998 RMK A01 T02610141  RH  048%=      5-min Rain = 0
KSP2 020612Z 20016KT 26/14 A2998 RMK A01 T02610141  RH  047%=      5-min Rain = 0
KSP2 020613Z 20015KT 26/14 A2998 RMK A01 T02610140  RH  047%=      5-min Rain = 0
KSP2 020614Z 20012KT 26/14 A2998 RMK A01 T02610140  RH  047%=      5-min Rain = 0
KSP2 020615Z 19013KT 26/14 A2998 RMK A01 T02610141  RH  047%=      5-min Rain = 0
KSP2 020616Z 19013KT 26/14 A2998 RMK A01 T02610141  RH  047%=      5-min Rain = 0
KSP2 020617Z 19012KT 26/14 A2998 RMK A01 T02610141  RH  047%=      5-min Rain = 0
KSP2 020618Z 19014KT 26/14 A2998 RMK A01 T02610141  RH  048%=      5-min Rain = 0
KSP2 020619Z 19014KT 26/14 A2998 RMK A01 T02610140  RH  047%=      5-min Rain = 0
KSP2 020620Z 19013KT 26/14 A2998 RMK A01 T02600140  RH  047%=      5-min Rain = 0
KSP2 020621Z 19014KT 26/14 A2998 RMK A01 T02600140  RH  047%=      5-min Rain = 0
KSP2 020622Z 19012KT 26/14 A2998 RMK A01 T02610140  RH  047%=      5-min Rain = 0
KSP2 020623Z 19013KT 26/14 A2998 RMK A01 T02610141  RH  047%=      5-min Rain = 0
KSP2 020624Z 19014KT 26/14 A2998 RMK A01 T02600141  RH  048%=      5-min Rain = 0
KSP2 020625Z 18014KT 26/14 A2998 RMK A01 T02610140  RH  047%=      5-min Rain = 0
KSP2 020626Z 18012KT 26/14 A2998 RMK A01 T02610141  RH  047%=      5-min Rain = 0
KSP2 020627Z 19012KT 26/14 A2998 RMK A01 T02610141  RH  048%=      5-min Rain = 0
KSP2 020628Z 19014KT 26/14 A2998 RMK A01 T02610141  RH  048%=      5-min Rain = 0
KSP2 020629Z 19013KT 26/14 A2998 RMK A01 T02610141  RH  048%=      5-min Rain = 0
KSP2 020630Z 19011KT 26/14 A2998 RMK A01 T02600141  RH  048%=      5-min Rain = 0
KSP2 020631Z 19012KT 26/14 A2998 RMK A01 T02600141  RH  048%=      5-min Rain = 0
KSP2 020632Z 19011KT 26/14 A2998 RMK A01 T02600141  RH  048%=      5-min Rain = 0
KSP2 020633Z 19010KT 26/14 A2998 RMK A01 T02600142  RH  048%=      5-min Rain = 0
KSP2 020634Z 19010KT 26/14 A2998 RMK A01 T02590142  RH  048%=      5-min Rain = 0
KSP2 020635Z 19010KT 26/14 A2998 RMK A01 T02590142  RH  048%=      5-min Rain = 0
KSP2 020636Z 19010KT 26/14 A2998 RMK A01 T02580142  RH  049%=      5-min Rain = 0
KSP2 020637Z 20009KT 26/14 A2998 RMK A01 T02580142  RH  049%=      5-min Rain = 0
KSP2 020638Z 20011KT 26/14 A2998 RMK A01 T02570142  RH  049%=      5-min Rain = 0
KSP2 020639Z 20010KT 26/14 A2998 RMK A01 T02570142  RH  049%=      5-min Rain = 0
KSP2 020640Z 19011KT 26/14 A2998 RMK A01 T02560142  RH  049%=      5-min Rain = 0
KSP2 020641Z 19009KT 26/14 A2998 RMK A01 T02570143  RH  049%=      5-min Rain = 0
KSP2 020642Z 20010KT 26/14 A2998 RMK A01 T02560143  RH  049%=      5-min Rain = 0
KSP2 020643Z 20009KT 26/14 A2998 RMK A01 T02550142  RH  050%=      5-min Rain = 0
KSP2 020644Z 20009KT 25/14 A2998 RMK A01 T02540142  RH  050%=      5-min Rain = 0
KSP2 020645Z 20009KT 25/14 A2998 RMK A01 T02530142  RH  050%=      5-min Rain = 0
KSP2 020646Z 21009KT 25/14 A2998 RMK A01 T02520142  RH  050%=      5-min Rain = 0
KSP2 020647Z 21009KT 25/14 A2998 RMK A01 T02520142  RH  050%=      5-min Rain = 0
KSP2 020648Z 21008KT 25/14 A2998 RMK A01 T02520142  RH  051%=      5-min Rain = 0
KSP2 020649Z 21008KT 25/14 A2998 RMK A01 T02510142  RH  051%=      5-min Rain = 0
KSP2 020650Z 21007KT 25/14 A2998 RMK A01 T02500142  RH  051%=      5-min Rain = 0
KSP2 020651Z 22007KT 25/14 A2998 RMK A01 T02490141  RH  051%=      5-min Rain = 0
KSP2 020652Z 22007KT 25/14 A2998 RMK A01 T02480141  RH  051%=      5-min Rain = 0
KSP2 020653Z 22008KT 25/14 A2998 RMK A01 T02480141  RH  051%=      5-min Rain = 0
KSP2 020654Z 22008KT 25/14 A2998 RMK A01 T02480141  RH  051%=      5-min Rain = 0
KSP2 020655Z 21008KT 25/14 A2998 RMK A01 T02480141  RH  051%=      5-min Rain = 0
KSP2 020656Z 22009KT 25/14 A2998 RMK A01 T02490142  RH  051%=      5-min Rain = 0
KSP2 020657Z 21009KT 25/14 A2998 RMK A01 T02490142  RH  051%=      5-min Rain = 0
KSP2 020658Z 21009KT 25/14 A2998 RMK A01 T02490142  RH  051%=      5-min Rain = 0
KSP2 020659Z 21009KT 25/14 A2998 RMK A01 T02500142  RH  051%=      5-min Rain = 0
KSP2 020700Z 21010KT 25/14 A2998 RMK A01 T02500143  RH  051%=      5-min Rain = 0
KSP2 020701Z 22009KT 25/14 A2998 RMK A01 T02500143  RH  051%=      5-min Rain = 0
KSP2 020702Z 21009G14KT 25/14 A2998 RMK A01 T02500143  RH  051%=      5-min Rain = 0
KSP2 020703Z 22010KT 25/14 A2998 RMK A01 T02500143  RH  051%=      5-min Rain = 0
KSP2 020704Z 21009KT 25/14 A2998 RMK A01 T02500143  RH  051%=      5-min Rain = 0
KSP2 020705Z 22009KT 25/14 A2998 RMK A01 T02500144  RH  051%=      5-min Rain = 0
KSP2 020706Z 22009KT 25/14 A2998 RMK A01 T02510144  RH  051%=      5-min Rain = 0
KSP2 020707Z 22010KT 25/14 A2998 RMK A01 T02500144  RH  052%=      5-min Rain = 0
KSP2 020708Z 21010KT 25/14 A2997 RMK A01 T02510144  RH  052%=      5-min Rain = 0
KSP2 020709Z 21011KT 25/14 A2998 RMK A01 T02510144  RH  051%=      5-min Rain = 0
KSP2 020710Z 22009KT 25/14 A2998 RMK A01 T02510144  RH  052%=      5-min Rain = 0
KSP2 020711Z 22009KT 25/15 A2998 RMK A01 T02510145  RH  052%=      5-min Rain = 0
KSP2 020712Z 21009KT 25/15 A2998 RMK A01 T02510145  RH  052%=      5-min Rain = 0
KSP2 020713Z 22009KT 25/15 A2998 RMK A01 T02510145  RH  052%=      5-min Rain = 0
KSP2 020714Z 21009KT 25/15 A2997 RMK A01 T02500145  RH  052%=      5-min Rain = 0
KSP2 020715Z 22010KT 25/15 A2998 RMK A01 T02510146  RH  052%=      5-min Rain = 0
KSP2 020716Z 21010KT 25/15 A2997 RMK A01 T02500145  RH  052%=      5-min Rain = 0
KSP2 020717Z 22010KT 25/15 A2998 RMK A01 T02500145  RH  052%=      5-min Rain = 0
KSP2 020718Z 21010KT 25/15 A2998 RMK A01 T02500145  RH  052%=      5-min Rain = 0
KSP2 020719Z 22009KT 25/15 A2997 RMK A01 T02500146  RH  052%=      5-min Rain = 0
KSP2 020720Z 22009KT 25/15 A2997 RMK A01 T02500146  RH  052%=      5-min Rain = 0
KSP2 020721Z 22008KT 25/15 A2997 RMK A01 T02500146  RH  052%=      5-min Rain = 0
KSP2 020722Z 22008KT 25/15 A2998 RMK A01 T02500146  RH  053%=      5-min Rain = 0
KSP2 020723Z 22009KT 25/15 A2998 RMK A01 T02490146  RH  053%=      5-min Rain = 0
KSP2 020724Z 22009KT 25/15 A2998 RMK A01 T02490146  RH  053%=      5-min Rain = 0
KSP2 020725Z 22009KT 25/15 A2998 RMK A01 T02490146  RH  053%=      5-min Rain = 0
KSP2 020726Z 22008KT 25/15 A2998 RMK A01 T02490146  RH  053%=      5-min Rain = 0
KSP2 020727Z 22008KT 25/15 A2998 RMK A01 T02490146  RH  053%=      5-min Rain = 0
KSP2 020728Z 22008KT 25/15 A2998 RMK A01 T02490147  RH  053%=      5-min Rain = 0
KSP2 020729Z 22008KT 25/15 A2998 RMK A01 T02480146  RH  053%=      5-min Rain = 0
KSP2 020730Z 22008KT 25/15 A2998 RMK A01 T02480146  RH  053%=      5-min Rain = 0
KSP2 020731Z 22008KT 25/15 A2998 RMK A01 T02480147  RH  053%=      5-min Rain = 0
KSP2 020732Z 22008KT 25/15 A2998 RMK A01 T02480147  RH  053%=      5-min Rain = 0
KSP2 020733Z 22009KT 25/15 A2998 RMK A01 T02480147  RH  053%=      5-min Rain = 0
KSP2 020734Z 22008KT 25/15 A2998 RMK A01 T02480147  RH  053%=      5-min Rain = 0
KSP2 020735Z 22008KT 25/15 A2997 RMK A01 T02480147  RH  053%=      5-min Rain = 0
KSP2 020736Z 22008KT 25/15 A2997 RMK A01 T02480148  RH  053%=      5-min Rain = 0
KSP2 020737Z 22008KT 25/15 A2997 RMK A01 T02480147  RH  054%=      5-min Rain = 0
KSP2 020738Z 23007KT 25/15 A2997 RMK A01 T02480147  RH  054%=      5-min Rain = 0
KSP2 020739Z 23008KT 25/15 A2997 RMK A01 T02480148  RH  054%=      5-min Rain = 0
KSP2 020740Z 22009KT 25/15 A2998 RMK A01 T02480148  RH  054%=      5-min Rain = 0
KSP2 020741Z 22010KT 25/15 A2998 RMK A01 T02480148  RH  054%=      5-min Rain = 0
KSP2 020742Z 22009KT 25/15 A2998 RMK A01 T02480148  RH  054%=      5-min Rain = 0
KSP2 020743Z 22009KT 25/15 A2997 RMK A01 T02480148  RH  054%=      5-min Rain = 0
KSP2 020744Z 22007KT 25/15 A2997 RMK A01 T02480149  RH  054%=      5-min Rain = 0
KSP2 020745Z 22009KT 25/15 A2997 RMK A01 T02470148  RH  054%=      5-min Rain = 0
KSP2 020746Z 22008KT 25/15 A2997 RMK A01 T02470149  RH  054%=      5-min Rain = 0
KSP2 020747Z 22008KT 25/15 A2997 RMK A01 T02460148  RH  054%=      5-min Rain = 0
KSP2 020748Z 22007KT 25/15 A2997 RMK A01 T02460149  RH  055%=      5-min Rain = 0
KSP2 020749Z 23008KT 25/15 A2997 RMK A01 T02460149  RH  055%=      5-min Rain = 0
KSP2 020750Z 23007KT 25/15 A2997 RMK A01 T02450148  RH  055%=      5-min Rain = 0
KSP2 020751Z 22007KT 25/15 A2997 RMK A01 T02450149  RH  055%=      5-min Rain = 0
KSP2 020752Z 23006KT 24/15 A2997 RMK A01 T02440148  RH  055%=      5-min Rain = 0
KSP2 020753Z 23007KT 24/15 A2997 RMK A01 T02430149  RH  056%=      5-min Rain = 0
KSP2 020754Z 23006KT 24/15 A2997 RMK A01 T02430148  RH  056%=      5-min Rain = 0
KSP2 020755Z 23007KT 24/15 A2997 RMK A01 T02420148  RH  056%=      5-min Rain = 0
KSP2 020756Z 23006KT 24/15 A2997 RMK A01 T02410148  RH  056%=      5-min Rain = 0
KSP2 020757Z 23006KT 24/15 A2997 RMK A01 T02410149  RH  056%=      5-min Rain = 0
KSP2 020758Z 23006KT 24/15 A2997 RMK A01 T02400149  RH  057%=      5-min Rain = 0
KSP2 020759Z 23007KT 24/15 A2997 RMK A01 T02400148  RH  057%=      5-min Rain = 0
KSP2 020800Z 23006KT 24/15 A2997 RMK A01 T02400149  RH  057%=      5-min Rain = 0
KSP2 020801Z 23006KT 24/15 A2997 RMK A01 T02390149  RH  057%=      5-min Rain = 0
KSP2 020802Z 23006KT 24/15 A2997 RMK A01 T02390149  RH  057%=      5-min Rain = 0
KSP2 020803Z 24006KT 24/15 A2997 RMK A01 T02380149  RH  057%=      5-min Rain = 0
KSP2 020804Z 23007KT 24/15 A2997 RMK A01 T02380149  RH  057%=      5-min Rain = 0
KSP2 020805Z 23007KT 24/15 A2997 RMK A01 T02370149  RH  058%=      5-min Rain = 0
KSP2 020806Z 23006KT 24/15 A2997 RMK A01 T02370149  RH  058%=      5-min Rain = 0
KSP2 020807Z 23006KT 24/15 A2997 RMK A01 T02370149  RH  058%=      5-min Rain = 0
KSP2 020808Z 23007KT 24/15 A2997 RMK A01 T02370149  RH  058%=      5-min Rain = 0
KSP2 020809Z 23007KT 24/15 A2997 RMK A01 T02370149  RH  058%=      5-min Rain = 0
KSP2 020810Z 22006KT 24/15 A2997 RMK A01 T02370149  RH  058%=      5-min Rain = 0
KSP2 020811Z 22006KT 24/15 A2997 RMK A01 T02370149  RH  058%=      5-min Rain = 0
KSP2 020812Z 22005KT 24/15 A2997 RMK A01 T02370149  RH  058%=      5-min Rain = 0
KSP2 020813Z 22005KT 24/15 A2997 RMK A01 T02370149  RH  058%=      5-min Rain = 0
KSP2 020814Z 22005KT 24/15 A2997 RMK A01 T02370149  RH  058%=      5-min Rain = 0
KSP2 020815Z 23005KT 24/15 A2997 RMK A01 T02360149  RH  058%=      5-min Rain = 0
KSP2 020816Z 23004KT 24/15 A2997 RMK A01 T02360149  RH  058%=      5-min Rain = 0
KSP2 020817Z 23005KT 24/15 A2997 RMK A01 T02350149  RH  058%=      5-min Rain = 0
KSP2 020818Z 22005KT 24/15 A2997 RMK A01 T02350149  RH  058%=      5-min Rain = 0
KSP2 020819Z 23005KT 23/15 A2997 RMK A01 T02340149  RH  059%=      5-min Rain = 0
KSP2 020820Z 23005KT 23/15 A2997 RMK A01 T02340149  RH  059%=      5-min Rain = 0
KSP2 020821Z 23005KT 23/15 A2997 RMK A01 T02340149  RH  059%=      5-min Rain = 0
KSP2 020822Z 22005KT 23/15 A2997 RMK A01 T02340149  RH  059%=      5-min Rain = 0
KSP2 020823Z 22004KT 23/15 A2997 RMK A01 T02330149  RH  059%=      5-min Rain = 0
KSP2 020824Z 21005KT 23/15 A2997 RMK A01 T02330149  RH  059%=      5-min Rain = 0
KSP2 020825Z 21004KT 23/15 A2997 RMK A01 T02330149  RH  059%=      5-min Rain = 0
KSP2 020826Z 21005KT 23/15 A2997 RMK A01 T02330149  RH  059%=      5-min Rain = 0
KSP2 020827Z 21005KT 23/15 A2997 RMK A01 T02320149  RH  059%=      5-min Rain = 0
KSP2 020828Z 21006KT 23/15 A2997 RMK A01 T02320149  RH  059%=      5-min Rain = 0
KSP2 020829Z 22005KT 23/15 A2997 RMK A01 T02310149  RH  060%=      5-min Rain = 0
KSP2 020830Z 22006KT 23/15 A2997 RMK A01 T02310149  RH  060%=      5-min Rain = 0
KSP2 020831Z 22005KT 23/15 A2997 RMK A01 T02310149  RH  060%=      5-min Rain = 0
KSP2 020832Z 22005KT 23/15 A2997 RMK A01 T02310149  RH  060%=      5-min Rain = 0
KSP2 020833Z 21005KT 23/15 A2997 RMK A01 T02310149  RH  060%=      5-min Rain = 0
KSP2 020834Z 21005KT 23/15 A2997 RMK A01 T02310149  RH  060%=      5-min Rain = 0
KSP2 020835Z 21005KT 23/15 A2997 RMK A01 T02310149  RH  060%=      5-min Rain = 0
KSP2 020836Z 21005KT 23/15 A2997 RMK A01 T02300149  RH  060%=      5-min Rain = 0
KSP2 020837Z 21005KT 23/15 A2997 RMK A01 T02290149  RH  060%=      5-min Rain = 0
KSP2 020838Z 21006KT 23/15 A2997 RMK A01 T02280149  RH  061%=      5-min Rain = 0
KSP2 020839Z 20006KT 23/15 A2997 RMK A01 T02280149  RH  061%=      5-min Rain = 0
KSP2 020840Z 21005KT 23/15 A2997 RMK A01 T02270149  RH  061%=      5-min Rain = 0
KSP2 020841Z 21006KT 23/15 A2997 RMK A01 T02270149  RH  062%=      5-min Rain = 0
KSP2 020842Z 21006KT 23/15 A2997 RMK A01 T02270150  RH  062%=      5-min Rain = 0
KSP2 020843Z 21006KT 23/15 A2997 RMK A01 T02260150  RH  062%=      5-min Rain = 0
KSP2 020844Z 21006KT 23/15 A2997 RMK A01 T02260150  RH  062%=      5-min Rain = 0
KSP2 020845Z 21007KT 23/15 A2997 RMK A01 T02260150  RH  062%=      5-min Rain = 0
KSP2 020846Z 21007KT 23/15 A2997 RMK A01 T02260150  RH  062%=      5-min Rain = 0
KSP2 020847Z 21007KT 23/15 A2997 RMK A01 T02270150  RH  062%=      5-min Rain = 0
KSP2 020848Z 21007KT 23/15 A2997 RMK A01 T02270150  RH  062%=      5-min Rain = 0
KSP2 020849Z 21007KT 23/15 A2997 RMK A01 T02270150  RH  062%=      5-min Rain = 0
KSP2 020850Z 21006KT 23/15 A2997 RMK A01 T02270150  RH  062%=      5-min Rain = 0
KSP2 020851Z 21007KT 23/15 A2997 RMK A01 T02270150  RH  061%=      5-min Rain = 0
KSP2 020852Z 22006KT 23/15 A2997 RMK A01 T02280150  RH  061%=      5-min Rain = 0
KSP2 020853Z 22006KT 23/15 A2997 RMK A01 T02280149  RH  061%=      5-min Rain = 0
KSP2 020854Z 22007KT 23/15 A2996 RMK A01 T02290149  RH  061%=      5-min Rain = 0
KSP2 020855Z 22007KT 23/15 A2996 RMK A01 T02290149  RH  061%=      5-min Rain = 0
KSP2 020856Z 22006KT 23/15 A2996 RMK A01 T02290149  RH  061%=      5-min Rain = 0
KSP2 020857Z 22007KT 23/15 A2996 RMK A01 T02290149  RH  061%=      5-min Rain = 0
KSP2 020858Z 22007KT 23/15 A2996 RMK A01 T02300149  RH  061%=      5-min Rain = 0
KSP2 020859Z 23006KT 23/15 A2996 RMK A01 T02300149  RH  060%=      5-min Rain = 0
KSP2 020900Z 23006KT 23/15 A2996 RMK A01 T02310149  RH  060%=      5-min Rain = 0
KSP2 020901Z 23007KT 23/15 A2996 RMK A01 T02300149  RH  060%=      5-min Rain = 0
KSP2 020902Z 23007KT 23/15 A2996 RMK A01 T02310150  RH  060%=      5-min Rain = 0
KSP2 020903Z 23006KT 23/15 A2996 RMK A01 T02310150  RH  060%=      5-min Rain = 0
KSP2 020904Z 23006KT 23/15 A2996 RMK A01 T02310150  RH  060%=      5-min Rain = 0
KSP2 020905Z 23006KT 23/15 A2996 RMK A01 T02310150  RH  060%=      5-min Rain = 0
KSP2 020906Z 23006KT 23/15 A2996 RMK A01 T02310150  RH  060%=      5-min Rain = 0
KSP2 020907Z 23006KT 23/15 A2996 RMK A01 T02310151  RH  060%=      5-min Rain = 0
KSP2 020908Z 24005KT 23/15 A2996 RMK A01 T02310150  RH  060%=      5-min Rain = 0
KSP2 020909Z 24005KT 23/15 A2996 RMK A01 T02320151  RH  060%=      5-min Rain = 0
KSP2 020910Z 23005KT 23/15 A2996 RMK A01 T02310151  RH  060%=      5-min Rain = 0
KSP2 020911Z 23005KT 23/15 A2996 RMK A01 T02310150  RH  060%=      5-min Rain = 0
KSP2 020912Z 23005KT 23/15 A2996 RMK A01 T02310151  RH  060%=      5-min Rain = 0
KSP2 020913Z 23006KT 23/15 A2996 RMK A01 T02310150  RH  060%=      5-min Rain = 0
KSP2 020914Z 23005KT 23/15 A2996 RMK A01 T02310150  RH  060%=      5-min Rain = 0
KSP2 020915Z 23005KT 23/15 A2996 RMK A01 T02310150  RH  060%=      5-min Rain = 0
KSP2 020916Z 23006KT 23/15 A2996 RMK A01 T02310150  RH  060%=      5-min Rain = 0
KSP2 020917Z 23005KT 23/15 A2996 RMK A01 T02310150  RH  060%=      5-min Rain = 0
KSP2 020918Z 23006KT 23/15 A2996 RMK A01 T02310150  RH  060%=      5-min Rain = 0
KSP2 020919Z 23006KT 23/15 A2996 RMK A01 T02320150  RH  060%=      5-min Rain = 0
KSP2 020920Z 23006KT 23/15 A2996 RMK A01 T02320150  RH  060%=      5-min Rain = 0
KSP2 020921Z 23006KT 23/15 A2996 RMK A01 T02330150  RH  060%=      5-min Rain = 0
KSP2 020922Z 23005KT 23/15 A2996 RMK A01 T02330150  RH  060%=      5-min Rain = 0
KSP2 020923Z 23005KT 23/15 A2996 RMK A01 T02320150  RH  060%=      5-min Rain = 0
KSP2 020924Z 23005KT 23/15 A2997 RMK A01 T02320150  RH  060%=      5-min Rain = 0
KSP2 020925Z 23005KT 23/15 A2996 RMK A01 T02320150  RH  060%=      5-min Rain = 0
KSP2 020926Z 23005KT 23/15 A2997 RMK A01 T02320150  RH  060%=      5-min Rain = 0
KSP2 020927Z 23005KT 23/15 A2997 RMK A01 T02310150  RH  060%=      5-min Rain = 0
KSP2 020928Z 23005KT 23/15 A2997 RMK A01 T02310150  RH  060%=      5-min Rain = 0
KSP2 020929Z 23006KT 23/15 A2997 RMK A01 T02310150  RH  060%=      5-min Rain = 0
KSP2 020930Z 23005KT 23/15 A2997 RMK A01 T02310150  RH  060%=      5-min Rain = 0
KSP2 020931Z 24005KT 23/15 A2997 RMK A01 T02310150  RH  060%=      5-min Rain = 0
KSP2 020932Z 24005KT 23/15 A2997 RMK A01 T02310150  RH  060%=      5-min Rain = 0
KSP2 020933Z 25005KT 23/15 A2997 RMK A01 T02300151  RH  061%=      5-min Rain = 0
KSP2 020934Z 27005KT 23/15 A2997 RMK A01 T02300150  RH  061%=      5-min Rain = 0
KSP2 020935Z 28005KT 23/15 A2997 RMK A01 T02290151  RH  061%=      5-min Rain = 0
KSP2 020936Z 27005KT 23/15 A2997 RMK A01 T02280150  RH  062%=      5-min Rain = 0
KSP2 020937Z 26004KT 23/15 A2997 RMK A01 T02270149  RH  061%=      5-min Rain = 0
KSP2 020938Z 26005KT 23/15 A2997 RMK A01 T02260149  RH  062%=      5-min Rain = 0
KSP2 020939Z 25004KT 23/15 A2997 RMK A01 T02260149  RH  062%=      5-min Rain = 0
KSP2 020940Z 26003KT 23/15 A2997 RMK A01 T02260149  RH  062%=      5-min Rain = 0
KSP2 020941Z 27002KT 23/15 A2997 RMK A01 T02260148  RH  061%=      5-min Rain = 0
KSP2 020942Z 27003KT 23/15 A2997 RMK A01 T02260148  RH  061%=      5-min Rain = 0
KSP2 020943Z 28003KT 23/15 A2997 RMK A01 T02250147  RH  061%=      5-min Rain = 0
KSP2 020944Z 28003KT 22/15 A2997 RMK A01 T02240147  RH  062%=      5-min Rain = 0
KSP2 020945Z 28004KT 22/15 A2997 RMK A01 T02240147  RH  062%=      5-min Rain = 0
KSP2 020946Z 28004KT 22/15 A2997 RMK A01 T02240148  RH  062%=      5-min Rain = 0
KSP2 020947Z 28004KT 22/15 A2997 RMK A01 T02230147  RH  062%=      5-min Rain = 0
KSP2 020948Z 28004KT 22/15 A2997 RMK A01 T02240148  RH  062%=      5-min Rain = 0
KSP2 020949Z 27004KT 22/15 A2997 RMK A01 T02230147  RH  062%=      5-min Rain = 0
KSP2 020950Z 27004KT 22/15 A2997 RMK A01 T02230148  RH  062%=      5-min Rain = 0
KSP2 020951Z 27004KT 22/15 A2997 RMK A01 T02230148  RH  062%=      5-min Rain = 0
KSP2 020952Z 26004KT 22/15 A2997 RMK A01 T02240148  RH  062%=      5-min Rain = 0
KSP2 020953Z 26004KT 22/15 A2997 RMK A01 T02230147  RH  062%=      5-min Rain = 0
KSP2 020954Z 26005KT 22/15 A2997 RMK A01 T02240148  RH  062%=      5-min Rain = 0
KSP2 020955Z 26005KT 22/15 A2997 RMK A01 T02240148  RH  062%=      5-min Rain = 0
KSP2 020956Z 26005KT 22/15 A2997 RMK A01 T02240148  RH  062%=      5-min Rain = 0
KSP2 020957Z 26005KT 22/15 A2997 RMK A01 T02240148  RH  062%=      5-min Rain = 0
KSP2 020958Z 26005KT 22/15 A2997 RMK A01 T02240148  RH  062%=      5-min Rain = 0
KSP2 020959Z 25005KT 22/15 A2998 RMK A01 T02240149  RH  062%=      5-min Rain = 0
KSP2 021000Z 24005KT 22/15 A2998 RMK A01 T02230148  RH  062%=      5-min Rain = 0
KSP2 021001Z 24004KT 22/15 A2998 RMK A01 T02230149  RH  063%=      5-min Rain = 0
KSP2 021002Z 23004KT 22/15 A2998 RMK A01 T02220149  RH  063%=      5-min Rain = 0
KSP2 021003Z 23003KT 22/15 A2998 RMK A01 T02230149  RH  063%=      5-min Rain = 0
KSP2 021004Z 23003KT 22/15 A2998 RMK A01 T02220149  RH  063%=      5-min Rain = 0
KSP2 021005Z 22002KT 22/15 A2998 RMK A01 T02230149  RH  063%=      5-min Rain = 0
KSP2 021006Z 20001KT 22/15 A2998 RMK A01 T02220149  RH  063%=      5-min Rain = 0
KSP2 021007Z 14001KT 22/15 A2998 RMK A01 T02220150  RH  064%=      5-min Rain = 0
KSP2 021008Z 12002KT 22/15 A2998 RMK A01 T02200149  RH  064%=      5-min Rain = 0
KSP2 021009Z 11002KT 22/15 A2999 RMK A01 T02180149  RH  065%=      5-min Rain = 0
KSP2 021010Z 09004KT 22/15 A2999 RMK A01 T02170149  RH  065%=      5-min Rain = 0
KSP2 021011Z 08006KT 22/15 A2999 RMK A01 T02160149  RH  065%=      5-min Rain = 0
KSP2 021012Z 07008KT 22/15 A2999 RMK A01 T02150149  RH  066%=      5-min Rain = 0
KSP2 021013Z 07009KT 22/15 A2999 RMK A01 T02150148  RH  066%=      5-min Rain = 0
KSP2 021014Z 07009KT 22/15 A2999 RMK A01 T02160148  RH  065%=      5-min Rain = 0
KSP2 021015Z 07008KT 22/15 A2999 RMK A01 T02180149  RH  065%=      5-min Rain = 0
KSP2 021016Z 07007KT 22/15 A2999 RMK A01 T02200149  RH  064%=      5-min Rain = 0
KSP2 021017Z 08007KT 22/15 A2999 RMK A01 T02220150  RH  064%=      5-min Rain = 0
KSP2 021018Z 09006KT 22/15 A2999 RMK A01 T02220150  RH  063%=      5-min Rain = 0
KSP2 021019Z 09005KT 22/15 A2999 RMK A01 T02230150  RH  063%=      5-min Rain = 0
KSP2 021020Z 10005KT 22/15 A2999 RMK A01 T02230149  RH  063%=      5-min Rain = 0
KSP2 021021Z 11004KT 22/15 A2999 RMK A01 T02230149  RH  063%=      5-min Rain = 0
KSP2 021022Z 10004KT 22/15 A2999 RMK A01 T02230149  RH  063%=      5-min Rain = 0
KSP2 021023Z 11003KT 22/15 A2999 RMK A01 T02240149  RH  063%=      5-min Rain = 0
KSP2 021024Z 12002KT 22/15 A2999 RMK A01 T02240149  RH  063%=      5-min Rain = 0
KSP2 021025Z 12003KT 22/15 A2999 RMK A01 T02240149  RH  063%=      5-min Rain = 0
KSP2 021026Z 14003KT 22/15 A2999 RMK A01 T02240149  RH  063%=      5-min Rain = 0
KSP2 021027Z 16003KT 22/15 A2999 RMK A01 T02240150  RH  063%=      5-min Rain = 0
KSP2 021028Z 17004KT 22/15 A2999 RMK A01 T02240150  RH  063%=      5-min Rain = 0
KSP2 021029Z 17004KT 23/15 A2999 RMK A01 T02250150  RH  063%=      5-min Rain = 0
KSP2 021030Z 17004KT 22/15 A2999 RMK A01 T02240149  RH  063%=      5-min Rain = 0
KSP2 021031Z 18005KT 22/15 A2999 RMK A01 T02240150  RH  063%=      5-min Rain = 0
KSP2 021032Z 18005KT 22/15 A2999 RMK A01 T02230150  RH  063%=      5-min Rain = 0
KSP2 021033Z 18005KT 22/15 A2999 RMK A01 T02230150  RH  063%=      5-min Rain = 0
KSP2 021034Z 18004KT 22/15 A2999 RMK A01 T02220150  RH  063%=      5-min Rain = 0
KSP2 021035Z 18004KT 22/15 A2999 RMK A01 T02220150  RH  064%=      5-min Rain = 0
KSP2 021036Z 19004KT 22/15 A2999 RMK A01 T02220150  RH  064%=      5-min Rain = 0
KSP2 021037Z 19003KT 22/15 A2999 RMK A01 T02210150  RH  064%=      5-min Rain = 0
KSP2 021038Z 19003KT 22/15 A2999 RMK A01 T02210150  RH  064%=      5-min Rain = 0
KSP2 021039Z 19003KT 22/15 A2999 RMK A01 T02210150  RH  064%=      5-min Rain = 0
KSP2 021040Z 19003KT 22/15 A2999 RMK A01 T02210150  RH  064%=      5-min Rain = 0
KSP2 021041Z 19002KT 22/15 A2999 RMK A01 T02200150  RH  064%=      5-min Rain = 0
KSP2 021042Z 19001KT 22/15 A2999 RMK A01 T02200150  RH  064%=      5-min Rain = 0
KSP2 021043Z 00000KT 22/15 A2999 RMK A01 T02200150  RH  064%=      5-min Rain = 0
KSP2 021044Z 19000KT 22/15 A2999 RMK A01 T02200150  RH  064%=      5-min Rain = 0
KSP2 021045Z 08001KT 22/15 A2999 RMK A01 T02190149  RH  064%=      5-min Rain = 0
KSP2 021046Z 04002KT 22/15 A2999 RMK A01 T02190149  RH  065%=      5-min Rain = 0
KSP2 021047Z 04002KT 22/15 A2999 RMK A01 T02180149  RH  065%=      5-min Rain = 0
KSP2 021048Z 03002KT 22/15 A2999 RMK A01 T02180149  RH  065%=      5-min Rain = 0
KSP2 021049Z 03002KT 22/15 A2999 RMK A01 T02170149  RH  065%=      5-min Rain = 0
KSP2 021050Z 03002KT 22/15 A2999 RMK A01 T02170149  RH  065%=      5-min Rain = 0
KSP2 021051Z 04002KT 22/15 A2999 RMK A01 T02170149  RH  065%=      5-min Rain = 0
KSP2 021052Z 04003KT 22/15 A2999 RMK A01 T02170149  RH  065%=      5-min Rain = 0
KSP2 021053Z 04003KT 22/15 A2999 RMK A01 T02170149  RH  065%=      5-min Rain = 0
KSP2 021054Z 06002KT 22/15 A2999 RMK A01 T02170149  RH  065%=      5-min Rain = 0
KSP2 021055Z 07002KT 22/15 A2999 RMK A01 T02170149  RH  065%=      5-min Rain = 0
KSP2 021056Z 07001KT 22/15 A2999 RMK A01 T02170148  RH  065%=      5-min Rain = 0
KSP2 021057Z 10001KT 22/15 A2999 RMK A01 T02170149  RH  065%=      5-min Rain = 0
KSP2 021058Z 11000KT 22/15 A2999 RMK A01 T02170148  RH  065%=      5-min Rain = 0
KSP2 021059Z 00000KT 22/15 A2999 RMK A01 T02160149  RH  065%=      5-min Rain = 0
KSP2 021100Z 18000KT 22/15 A2999 RMK A01 T02160149  RH  066%=      5-min Rain = 0
KSP2 021101Z 18002KT 22/15 A2999 RMK A01 T02150148  RH  066%=      5-min Rain = 0
KSP2 021102Z 18002KT 22/15 A2999 RMK A01 T02150148  RH  066%=      5-min Rain = 0
KSP2 021103Z 18003KT 22/15 A2999 RMK A01 T02150149  RH  066%=      5-min Rain = 0
KSP2 021104Z 18003KT 22/15 A2999 RMK A01 T02150149  RH  066%=      5-min Rain = 0
KSP2 021105Z 18004KT 22/15 A2999 RMK A01 T02150149  RH  066%=      5-min Rain = 0
KSP2 021106Z 18004KT 22/15 A2999 RMK A01 T02150148  RH  066%=      5-min Rain = 0
KSP2 021107Z 18004KT 22/15 A2999 RMK A01 T02160149  RH  066%=      5-min Rain = 0
KSP2 021108Z 18004KT 22/15 A2999 RMK A01 T02150148  RH  066%=      5-min Rain = 0
KSP2 021109Z 18004KT 22/15 A2999 RMK A01 T02150149  RH  066%=      5-min Rain = 0
KSP2 021110Z 18004KT 21/15 A2999 RMK A01 T02140148  RH  066%=      5-min Rain = 0
KSP2 021111Z 19004KT 21/15 A2999 RMK A01 T02140148  RH  066%=      5-min Rain = 0
KSP2 021112Z 19004KT 21/15 A2999 RMK A01 T02130148  RH  067%=      5-min Rain = 0
KSP2 021113Z 19003KT 21/15 A2999 RMK A01 T02120149  RH  067%=      5-min Rain = 0
KSP2 021114Z 19003KT 21/15 A2999 RMK A01 T02120149  RH  067%=      5-min Rain = 0
KSP2 021115Z 19003KT 21/15 A2999 RMK A01 T02110148  RH  067%=      5-min Rain = 0
KSP2 021116Z 19003KT 21/15 A2999 RMK A01 T02120149  RH  067%=      5-min Rain = 0
KSP2 021117Z 19003KT 21/15 A2999 RMK A01 T02110149  RH  067%=      5-min Rain = 0
KSP2 021118Z 19003KT 21/15 A2999 RMK A01 T02110149  RH  067%=      5-min Rain = 0
KSP2 021119Z 19003KT 21/15 A2999 RMK A01 T02110148  RH  067%=      5-min Rain = 0
KSP2 021120Z 19002KT 21/15 A2999 RMK A01 T02100148  RH  068%=      5-min Rain = 0
KSP2 021121Z 19002KT 21/15 A2999 RMK A01 T02100148  RH  068%=      5-min Rain = 0
KSP2 021122Z 19002KT 21/15 A30 RMK A01 T02100148  RH  068%=      5-min Rain = 0
KSP2 021123Z 19001KT 21/15 A30 RMK A01 T02090148  RH  068%=      5-min Rain = 0
KSP2 021124Z 21001KT 21/15 A30 RMK A01 T02090148  RH  068%=      5-min Rain = 0
KSP2 021125Z 22000KT 21/15 A30 RMK A01 T02090149  RH  069%=      5-min Rain = 0
KSP2 021126Z 22000KT 21/15 A30 RMK A01 T02090149  RH  069%=      5-min Rain = 0
KSP2 021127Z 27001KT 21/15 A30 RMK A01 T02080148  RH  068%=      5-min Rain = 0
KSP2 021128Z 27001KT 21/15 A30 RMK A01 T02090148  RH  068%=      5-min Rain = 0
KSP2 021129Z 25001KT 21/15 A30 RMK A01 T02090148  RH  068%=      5-min Rain = 0
KSP2 021130Z 23001KT 21/15 A2999 RMK A01 T02100149  RH  068%=      5-min Rain = 0
KSP2 021131Z 22002KT 21/15 A2999 RMK A01 T02100149  RH  068%=      5-min Rain = 0
KSP2 021132Z 21002KT 21/15 A2999 RMK A01 T02100148  RH  068%=      5-min Rain = 0
KSP2 021133Z 22002KT 21/15 A2999 RMK A01 T02100148  RH  068%=      5-min Rain = 0
KSP2 021134Z 22003KT 21/15 A2999 RMK A01 T02100148  RH  068%=      5-min Rain = 0
KSP2 021135Z 22003KT 21/15 A2999 RMK A01 T02100148  RH  068%=      5-min Rain = 0
KSP2 021136Z 21003KT 21/15 A2999 RMK A01 T02090149  RH  068%=      5-min Rain = 0
KSP2 021137Z 21004KT 21/15 A2999 RMK A01 T02080148  RH  068%=      5-min Rain = 0
KSP2 021138Z 21004KT 21/15 A30 RMK A01 T02080148  RH  068%=      5-min Rain = 0
KSP2 021139Z 21004KT 21/15 A30 RMK A01 T02070148  RH  069%=      5-min Rain = 0
KSP2 021140Z 21004KT 21/15 A30 RMK A01 T02070148  RH  069%=      5-min Rain = 0
KSP2 021141Z 22003KT 21/15 A30 RMK A01 T02070148  RH  069%=      5-min Rain = 0
KSP2 021142Z 21003KT 21/15 A30 RMK A01 T02070150  RH  070%=      5-min Rain = 0
KSP2 021143Z 21004KT 21/15 A30 RMK A01 T02060149  RH  070%=      5-min Rain = 0
KSP2 021144Z 21004KT 21/15 A30 RMK A01 T02070149  RH  070%=      5-min Rain = 0
KSP2 021145Z 21004KT 21/15 A30 RMK A01 T02070149  RH  069%=      5-min Rain = 0
KSP2 021146Z 22004KT 21/15 A30 RMK A01 T02070149  RH  069%=      5-min Rain = 0
KSP2 021147Z 22004KT 21/15 A30 RMK A01 T02070149  RH  069%=      5-min Rain = 0
KSP2 021148Z 21004KT 21/15 A30 RMK A01 T02070149  RH  069%=      5-min Rain = 0
KSP2 021149Z 22004KT 21/15 A30 RMK A01 T02070149  RH  069%=      5-min Rain = 0
KSP2 021150Z 22004KT 21/15 A30 RMK A01 T02080149  RH  069%=      5-min Rain = 0
KSP2 021151Z 21004KT 21/15 A30 RMK A01 T02090149  RH  069%=      5-min Rain = 0
KSP2 021152Z 22004KT 21/15 A30 RMK A01 T02090149  RH  069%=      5-min Rain = 0
KSP2 021153Z 22004KT 21/15 A30 RMK A01 T02090149  RH  068%=      5-min Rain = 0
KSP2 021154Z 22004KT 21/15 A30 RMK A01 T02090149  RH  068%=      5-min Rain = 0
KSP2 021155Z 22004KT 21/15 A30 RMK A01 T02090149  RH  069%=      5-min Rain = 0
KSP2 021156Z 22004KT 21/15 A30 RMK A01 T02080149  RH  069%=      5-min Rain = 0
KSP2 021157Z 22003KT 21/15 A30 RMK A01 T02080149  RH  069%=      5-min Rain = 0
KSP2 021158Z 22003KT 21/15 A30 RMK A01 T02090149  RH  069%=      5-min Rain = 0
KSP2 021159Z 23002KT 21/15 A30 RMK A01 T02080149  RH  069%=      5-min Rain = 0
KSP2 021200Z 23001KT 21/15 A30 RMK A01 T02080149  RH  069%=      5-min Rain = 0
KSP2 021201Z 23002KT 21/15 A30 RMK A01 T02080149  RH  069%=      5-min Rain = 0
KSP2 021202Z 22002KT 21/15 A30 RMK A01 T02090148  RH  068%=      5-min Rain = 0
KSP2 021203Z 22002KT 21/15 A30 RMK A01 T02090148  RH  068%=      5-min Rain = 0
KSP2 021204Z 22002KT 21/15 A30 RMK A01 T02090148  RH  068%=      5-min Rain = 0
KSP2 021205Z 23001KT 21/15 A30 RMK A01 T02100148  RH  068%=      5-min Rain = 0
KSP2 021206Z 22001KT 21/15 A3001 RMK A01 T02100149  RH  068%=      5-min Rain = 0
KSP2 021207Z 22002KT 21/15 A3001 RMK A01 T02100149  RH  068%=      5-min Rain = 0
KSP2 021208Z 23002KT 21/15 A3001 RMK A01 T02090149  RH  068%=      5-min Rain = 0
KSP2 021209Z 22002KT 21/15 A3001 RMK A01 T02090148  RH  068%=      5-min Rain = 0
KSP2 021210Z 22003KT 21/15 A3001 RMK A01 T02090149  RH  068%=      5-min Rain = 0
KSP2 021211Z 22003KT 21/15 A3001 RMK A01 T02090148  RH  068%=      5-min Rain = 0
KSP2 021212Z 22004KT 21/15 A3001 RMK A01 T02090149  RH  068%=      5-min Rain = 0
KSP2 021213Z 22003KT 21/15 A3001 RMK A01 T02090149  RH  068%=      5-min Rain = 0
KSP2 021214Z 22004KT 21/15 A3001 RMK A01 T02100149  RH  068%=      5-min Rain = 0
KSP2 021215Z 22004KT 21/15 A30 RMK A01 T02100150  RH  068%=      5-min Rain = 0
KSP2 021216Z 22005KT 21/15 A30 RMK A01 T02110150  RH  068%=      5-min Rain = 0
KSP2 021217Z 22005KT 21/15 A30 RMK A01 T02120150  RH  068%=      5-min Rain = 0
KSP2 021218Z 22005KT 21/15 A30 RMK A01 T02130151  RH  067%=      5-min Rain = 0
KSP2 021219Z 22005KT 21/15 A30 RMK A01 T02130151  RH  067%=      5-min Rain = 0
KSP2 021220Z 22005KT 21/15 A30 RMK A01 T02130151  RH  067%=      5-min Rain = 0
KSP2 021221Z 23006KT 21/15 A30 RMK A01 T02140151  RH  067%=      5-min Rain = 0
KSP2 021222Z 22006KT 22/15 A30 RMK A01 T02150152  RH  067%=      5-min Rain = 0
KSP2 021223Z 22006KT 22/15 A30 RMK A01 T02160152  RH  067%=      5-min Rain = 0
KSP2 021224Z 22006KT 22/15 A30 RMK A01 T02160152  RH  067%=      5-min Rain = 0
KSP2 021225Z 22005KT 22/15 A30 RMK A01 T02170152  RH  066%=      5-min Rain = 0
KSP2 021226Z 22005KT 22/15 A30 RMK A01 T02180152  RH  066%=      5-min Rain = 0
KSP2 021227Z 22005KT 22/15 A30 RMK A01 T02180152  RH  066%=      5-min Rain = 0
KSP2 021228Z 21006KT 22/15 A30 RMK A01 T02190152  RH  066%=      5-min Rain = 0
KSP2 021229Z 21006KT 22/15 A30 RMK A01 T02190152  RH  066%=      5-min Rain = 0
KSP2 021230Z 21005KT 22/15 A30 RMK A01 T02200153  RH  066%=      5-min Rain = 0
KSP2 021231Z 21005KT 22/15 A30 RMK A01 T02200153  RH  066%=      5-min Rain = 0
KSP2 021232Z 20005KT 22/15 A30 RMK A01 T02200153  RH  066%=      5-min Rain = 0
KSP2 021233Z 20005KT 22/15 A30 RMK A01 T02210153  RH  065%=      5-min Rain = 0
KSP2 021234Z 20006KT 22/15 A30 RMK A01 T02210153  RH  065%=      5-min Rain = 0
KSP2 021235Z 20006KT 22/15 A30 RMK A01 T02220153  RH  065%=      5-min Rain = 0
KSP2 021236Z 21005KT 22/15 A30 RMK A01 T02230153  RH  065%=      5-min Rain = 0
KSP2 021237Z 21006KT 22/15 A30 RMK A01 T02230153  RH  064%=      5-min Rain = 0
KSP2 021238Z 21005KT 22/15 A30 RMK A01 T02240153  RH  064%=      5-min Rain = 0
KSP2 021239Z 21004KT 22/15 A30 RMK A01 T02240154  RH  064%=      5-min Rain = 0
KSP2 021240Z 21004KT 23/15 A30 RMK A01 T02250154  RH  064%=      5-min Rain = 0
KSP2 021241Z 21004KT 23/15 A30 RMK A01 T02250154  RH  064%=      5-min Rain = 0
KSP2 021242Z 20005KT 23/15 A30 RMK A01 T02260154  RH  064%=      5-min Rain = 0
KSP2 021243Z 20005KT 23/15 A30 RMK A01 T02260154  RH  064%=      5-min Rain = 0
KSP2 021244Z 20004KT 23/15 A30 RMK A01 T02260154  RH  064%=      5-min Rain = 0
KSP2 021245Z 20005KT 23/15 A30 RMK A01 T02270154  RH  064%=      5-min Rain = 0
KSP2 021246Z 21005KT 23/15 A30 RMK A01 T02270154  RH  063%=      5-min Rain = 0
KSP2 021247Z 21004KT 23/15 A30 RMK A01 T02270153  RH  063%=      5-min Rain = 0
KSP2 021248Z 21005KT 23/15 A30 RMK A01 T02270154  RH  063%=      5-min Rain = 0
KSP2 021249Z 21005KT 23/15 A30 RMK A01 T02280153  RH  063%=      5-min Rain = 0
KSP2 021250Z 22005KT 23/15 A30 RMK A01 T02290154  RH  063%=      5-min Rain = 0
KSP2 021251Z 22005KT 23/15 A30 RMK A01 T02300154  RH  062%=      5-min Rain = 0
KSP2 021252Z 21005KT 23/16 A30 RMK A01 T02320155  RH  062%=      5-min Rain = 0
KSP2 021253Z 21007KT 23/16 A30 RMK A01 T02330155  RH  061%=      5-min Rain = 0
KSP2 021254Z 20007KT 24/15 A30 RMK A01 T02350154  RH  060%=      5-min Rain = 0
KSP2 021255Z 21006KT 24/15 A30 RMK A01 T02360154  RH  060%=      5-min Rain = 0
KSP2 021256Z 21005KT 24/16 A30 RMK A01 T02380155  RH  060%=      5-min Rain = 0
KSP2 021257Z 21005KT 24/16 A30 RMK A01 T02390156  RH  059%=      5-min Rain = 0
KSP2 021258Z 21007KT 24/16 A30 RMK A01 T02410155  RH  059%=      5-min Rain = 0
KSP2 021259Z 21008KT 24/15 A30 RMK A01 T02420154  RH  058%=      5-min Rain = 0
KSP2 021300Z 21008KT 24/15 A30 RMK A01 T02420154  RH  058%=      5-min Rain = 0
KSP2 021301Z 22007KT 24/15 A30 RMK A01 T02420154  RH  058%=      5-min Rain = 0
KSP2 021302Z 22008KT 24/16 A30 RMK A01 T02430155  RH  058%=      5-min Rain = 0
KSP2 021303Z 22008KT 24/16 A30 RMK A01 T02440155  RH  057%=      5-min Rain = 0
KSP2 021304Z 21009KT 25/15 A30 RMK A01 T02450154  RH  057%=      5-min Rain = 0
KSP2 021305Z 22007KT 25/15 A30 RMK A01 T02450154  RH  057%=      5-min Rain = 0
KSP2 021306Z 21007KT 25/16 A30 RMK A01 T02460155  RH  057%=      5-min Rain = 0
KSP2 021307Z 21010KT 25/15 A30 RMK A01 T02470154  RH  056%=      5-min Rain = 0
KSP2 021308Z 21009KT 25/15 A30 RMK A01 T02470154  RH  056%=      5-min Rain = 0
KSP2 021309Z 21008KT 25/16 A30 RMK A01 T02470155  RH  056%=      5-min Rain = 0
KSP2 021310Z 21008KT 25/15 A30 RMK A01 T02480154  RH  056%=      5-min Rain = 0
KSP2 021311Z 20008KT 25/16 A30 RMK A01 T02490155  RH  056%=      5-min Rain = 0
KSP2 021312Z 21006KT 25/16 A3001 RMK A01 T02500156  RH  056%=      5-min Rain = 0
KSP2 021313Z 21008KT 25/16 A3001 RMK A01 T02510156  RH  056%=      5-min Rain = 0
KSP2 021314Z 21009KT 25/16 A3001 RMK A01 T02520155  RH  055%=      5-min Rain = 0
KSP2 021315Z 21009KT 25/16 A3001 RMK A01 T02530155  RH  055%=      5-min Rain = 0
KSP2 021316Z 21006KT 25/16 A3001 RMK A01 T02530156  RH  055%=      5-min Rain = 0
KSP2 021317Z 21009KT 25/16 A3001 RMK A01 T02530155  RH  054%=      5-min Rain = 0
KSP2 021318Z 21010KT 25/16 A3001 RMK A01 T02540155  RH  054%=      5-min Rain = 0
KSP2 021319Z 21008KT 25/16 A3001 RMK A01 T02540155  RH  054%=      5-min Rain = 0
KSP2 021320Z 21010KT 25/16 A3001 RMK A01 T02540155  RH  054%=      5-min Rain = 0
KSP2 021321Z 21008KT 26/16 A3001 RMK A01 T02550155  RH  054%=      5-min Rain = 0
KSP2 021322Z 21009KT 26/16 A3001 RMK A01 T02550156  RH  054%=      5-min Rain = 0
KSP2 021323Z 20010KT 26/16 A3001 RMK A01 T02560155  RH  053%=      5-min Rain = 0
KSP2 021324Z 21010KT 26/16 A3001 RMK A01 T02560155  RH  053%=      5-min Rain = 0
KSP2 021325Z 21010KT 26/16 A3001 RMK A01 T02570155  RH  053%=      5-min Rain = 0
KSP2 021326Z 21010KT 26/16 A3001 RMK A01 T02570155  RH  053%=      5-min Rain = 0
KSP2 021327Z 21010KT 26/16 A3001 RMK A01 T02570155  RH  053%=      5-min Rain = 0
KSP2 021328Z 20008KT 26/16 A3001 RMK A01 T02580156  RH  053%=      5-min Rain = 0
KSP2 021329Z 20010KT 26/16 A3001 RMK A01 T02600156  RH  053%=      5-min Rain = 0
KSP2 021330Z 22010KT 26/16 A3001 RMK A01 T02610156  RH  053%=      5-min Rain = 0
KSP2 021331Z 21009KT 26/16 A3002 RMK A01 T02610156  RH  052%=      5-min Rain = 0
KSP2 021332Z 20010KT 26/16 A3002 RMK A01 T02610157  RH  052%=      5-min Rain = 0
KSP2 021333Z 20009KT 26/16 A3002 RMK A01 T02620157  RH  053%=      5-min Rain = 0
KSP2 021334Z 20012KT 26/16 A3002 RMK A01 T02630156  RH  052%=      5-min Rain = 0
KSP2 021335Z 20011KT 26/16 A3002 RMK A01 T02620156  RH  052%=      5-min Rain = 0
KSP2 021336Z 20012KT 26/16 A3002 RMK A01 T02620156  RH  052%=      5-min Rain = 0
KSP2 021337Z 21012KT 26/16 A3002 RMK A01 T02620156  RH  052%=      5-min Rain = 0
KSP2 021338Z 20011KT 26/16 A3002 RMK A01 T02630156  RH  052%=      5-min Rain = 0
KSP2 021339Z 20011KT 26/16 A3002 RMK A01 T02630157  RH  052%=      5-min Rain = 0
KSP2 021340Z 20009KT 26/16 A3002 RMK A01 T02640157  RH  052%=      5-min Rain = 0
KSP2 021341Z 19010KT 26/16 A3002 RMK A01 T02640158  RH  052%=      5-min Rain = 0
KSP2 021342Z 19010KT 27/16 A3002 RMK A01 T02660158  RH  051%=      5-min Rain = 0
KSP2 021343Z 19010KT 27/16 A3002 RMK A01 T02660157  RH  051%=      5-min Rain = 0
KSP2 021344Z 20009KT 27/16 A3002 RMK A01 T02660158  RH  051%=      5-min Rain = 0
KSP2 021345Z 20011KT 27/16 A3002 RMK A01 T02670158  RH  051%=      5-min Rain = 0
KSP2 021346Z 20009KT 27/16 A3002 RMK A01 T02670157  RH  051%=      5-min Rain = 0
KSP2 021347Z 21012KT 27/16 A3002 RMK A01 T02680158  RH  051%=      5-min Rain = 0
KSP2 021348Z 20010KT 27/16 A3002 RMK A01 T02680158  RH  051%=      5-min Rain = 0
KSP2 021349Z 20011KT 27/16 A3002 RMK A01 T02680158  RH  051%=      5-min Rain = 0
KSP2 021350Z 19012KT 27/16 A3002 RMK A01 T02680158  RH  051%=      5-min Rain = 0
KSP2 021351Z 20012KT 27/16 A3002 RMK A01 T02680158  RH  051%=      5-min Rain = 0
KSP2 021352Z 20011KT 27/16 A3002 RMK A01 T02680159  RH  051%=      5-min Rain = 0
KSP2 021353Z 21009KT 27/16 A3002 RMK A01 T02680158  RH  051%=      5-min Rain = 0
KSP2 021354Z 21009KT 27/16 A3002 RMK A01 T02690159  RH  051%=      5-min Rain = 0
KSP2 021355Z 21012KT 27/16 A3002 RMK A01 T02710160  RH  050%=      5-min Rain = 0
KSP2 021356Z 22010KT 27/16 A3002 RMK A01 T02720159  RH  050%=      5-min Rain = 0
KSP2 021357Z 21012KT 27/16 A3002 RMK A01 T02720160  RH  050%=      5-min Rain = 0
KSP2 021358Z 22011KT 27/16 A3002 RMK A01 T02730159  RH  050%=      5-min Rain = 0
KSP2 021359Z 21008KT 27/16 A3002 RMK A01 T02720160  RH  050%=      5-min Rain = 0
KSP2 021400Z 20012KT 27/16 A3002 RMK A01 T02720160  RH  050%=      5-min Rain = 0
KSP2 021401Z 20012KT 27/16 A3002 RMK A01 T02730160  RH  050%=      5-min Rain = 0
KSP2 021402Z 21010KT 27/16 A3003 RMK A01 T02730160  RH  050%=      5-min Rain = 0
KSP2 021403Z 21010KT 28/16 A3003 RMK A01 T02750162  RH  050%=      5-min Rain = 0
KSP2 021404Z 20011KT 28/16 A3003 RMK A01 T02770162  RH  050%=      5-min Rain = 0
KSP2 021405Z 21014KT 28/16 A3003 RMK A01 T02770161  RH  049%=      5-min Rain = 0
KSP2 021406Z 22013KT 28/16 A3003 RMK A01 T02770161  RH  049%=      5-min Rain = 0
KSP2 021407Z 21012KT 27/16 A3003 RMK A01 T02740161  RH  050%=      5-min Rain = 0
KSP2 021408Z 20011KT 27/16 A3003 RMK A01 T02730161  RH  050%=      5-min Rain = 0
KSP2 021409Z 21011KT 28/16 A3003 RMK A01 T02750162  RH  050%=      5-min Rain = 0
KSP2 021410Z 21011KT 28/16 A3003 RMK A01 T02760162  RH  050%=      5-min Rain = 0
KSP2 021411Z 21012KT 28/16 A3003 RMK A01 T02760162  RH  050%=      5-min Rain = 0
KSP2 021412Z 21010KT 28/16 A3003 RMK A01 T02770162  RH  050%=      5-min Rain = 0
KSP2 021413Z 20011KT 28/16 A3003 RMK A01 T02780163  RH  050%=      5-min Rain = 0
KSP2 021414Z 20014KT 28/16 A3003 RMK A01 T02800163  RH  049%=      5-min Rain = 0
KSP2 021415Z 20013KT 28/16 A3003 RMK A01 T02790162  RH  049%=      5-min Rain = 0
KSP2 021416Z 20012KT 28/16 A3003 RMK A01 T02780163  RH  049%=      5-min Rain = 0
KSP2 021417Z 22010KT 28/16 A3003 RMK A01 T02780163  RH  050%=      5-min Rain = 0
KSP2 021418Z 21012KT 28/16 A3003 RMK A01 T02790164  RH  050%=      5-min Rain = 0
KSP2 021419Z 21013KT 28/16 A3003 RMK A01 T02790163  RH  049%=      5-min Rain = 0
KSP2 021420Z 22013KT 28/16 A3003 RMK A01 T02790163  RH  049%=      5-min Rain = 0
KSP2 021421Z 22013KT 28/16 A3003 RMK A01 T02780164  RH  050%=      5-min Rain = 0
KSP2 021422Z 21012KT 28/16 A3003 RMK A01 T02770164  RH  050%=      5-min Rain = 0
KSP2 021423Z 22011KT 28/17 A3003 RMK A01 T02780165  RH  050%=      5-min Rain = 0
KSP2 021424Z 22009KT 28/16 A3003 RMK A01 T02800164  RH  049%=      5-min Rain = 0
KSP2 021425Z 22008KT 28/17 A3003 RMK A01 T02790165  RH  050%=      5-min Rain = 0
KSP2 021426Z 20010KT 28/17 A3003 RMK A01 T02810166  RH  050%=      5-min Rain = 0
KSP2 021427Z 21013KT 28/17 A3003 RMK A01 T02840165  RH  048%=      5-min Rain = 0
KSP2 021428Z 22009KT 28/17 A3003 RMK A01 T02830165  RH  049%=      5-min Rain = 0
KSP2 021429Z 21013KT 28/17 A3003 RMK A01 T02830165  RH  049%=      5-min Rain = 0
KSP2 021430Z 21013KT 28/16 A3003 RMK A01 T02840164  RH  048%=      5-min Rain = 0
KSP2 021431Z 22013G19KT 28/17 A3003 RMK A01 T02830165  RH  049%=      5-min Rain = 0
KSP2 021432Z 21013KT 28/17 A3003 RMK A01 T02840165  RH  049%=      5-min Rain = 0
KSP2 021433Z 21012KT 28/17 A3003 RMK A01 T02830165  RH  049%=      5-min Rain = 0
KSP2 021434Z 21011KT 28/17 A3003 RMK A01 T02820165  RH  049%=      5-min Rain = 0
KSP2 021435Z 20011KT 28/16 A3003 RMK A01 T02830164  RH  049%=      5-min Rain = 0
KSP2 021436Z 21013KT 29/17 A3003 RMK A01 T02850166  RH  048%=      5-min Rain = 0
KSP2 021437Z 21013KT 29/17 A3003 RMK A01 T02850165  RH  048%=      5-min Rain = 0
KSP2 021438Z 21016KT 29/17 A3003 RMK A01 T02850165  RH  048%=      5-min Rain = 0
KSP2 021439Z 21012KT 28/17 A3003 RMK A01 T02840165  RH  048%=      5-min Rain = 0
KSP2 021440Z 23010KT 28/17 A3003 RMK A01 T02830165  RH  049%=      5-min Rain = 0
KSP2 021441Z 21010KT 28/17 A3003 RMK A01 T02840165  RH  049%=      5-min Rain = 0
KSP2 021442Z 21013KT 29/17 A3003 RMK A01 T02850166  RH  049%=      5-min Rain = 0
KSP2 021443Z 20013KT 29/17 A3003 RMK A01 T02860165  RH  048%=      5-min Rain = 0
KSP2 021444Z 20012KT 29/17 A3004 RMK A01 T02870166  RH  048%=      5-min Rain = 0
KSP2 021445Z 20010KT 29/17 A3004 RMK A01 T02910167  RH  047%=      5-min Rain = 0
KSP2 021446Z 20011KT 29/17 A3003 RMK A01 T02920168  RH  047%=      5-min Rain = 0
KSP2 021447Z 20013KT 29/17 A3003 RMK A01 T02920166  RH  046%=      5-min Rain = 0
KSP2 021448Z 23009KT 29/17 A3003 RMK A01 T02900167  RH  047%=      5-min Rain = 0
KSP2 021449Z 22010G15KT 29/17 A3003 RMK A01 T02930168  RH  047%=      5-min Rain = 0
KSP2 021450Z 22015KT 29/17 A3003 RMK A01 T02930166  RH  046%=      5-min Rain = 0
KSP2 021451Z 22012G17KT 29/17 A3003 RMK A01 T02910166  RH  047%=      5-min Rain = 0
KSP2 021452Z 23011KT 29/17 A3003 RMK A01 T02910167  RH  047%=      5-min Rain = 0
KSP2 021453Z 22012KT 29/17 A3003 RMK A01 T02910167  RH  047%=      5-min Rain = 0
KSP2 021454Z 22012KT 29/17 A3003 RMK A01 T02910167  RH  047%=      5-min Rain = 0
KSP2 021455Z 23012KT 29/17 A3003 RMK A01 T02900167  RH  047%=      5-min Rain = 0
KSP2 021456Z 21012KT 29/17 A3003 RMK A01 T02900166  RH  047%=      5-min Rain = 0
KSP2 021457Z 21011KT 29/17 A3003 RMK A01 T02900166  RH  047%=      5-min Rain = 0
KSP2 021458Z 22011KT 29/17 A3003 RMK A01 T02930167  RH  047%=      5-min Rain = 0
KSP2 021459Z 20009KT 29/17 A3003 RMK A01 T02940167  RH  046%=      5-min Rain = 0
KSP2 021500Z 21010KT 30/17 A3003 RMK A01 T02970169  RH  046%=      5-min Rain = 0
KSP2 021501Z 21010G16KT 30/17 A3003 RMK A01 T02990168  RH  045%=      5-min Rain = 0
KSP2 021502Z 21011KT 30/17 A3003 RMK A01 T02990168  RH  045%=      5-min Rain = 0
KSP2 021503Z 22008KT 30/17 A3003 RMK A01 T02980168  RH  046%=      5-min Rain = 0
KSP2 021504Z 22010KT 30/17 A3003 RMK A01 T02980167  RH  045%=      5-min Rain = 0
KSP2 021505Z 21008G14KT 30/17 A3003 RMK A01 T02980168  RH  046%=      5-min Rain = 0
KSP2 021506Z 21009KT 30/17 A3003 RMK A01 T02990169  RH  045%=      5-min Rain = 0
KSP2 021507Z 22011KT 30/17 A3003 RMK A01 T03020169  RH  045%=      5-min Rain = 0
KSP2 021508Z 22010KT 30/17 A3003 RMK A01 T02990166  RH  045%=      5-min Rain = 0
KSP2 021509Z 21008KT 30/17 A3003 RMK A01 T02960168  RH  046%=      5-min Rain = 0
KSP2 021510Z 21009KT 30/17 A3003 RMK A01 T02990169  RH  045%=      5-min Rain = 0
KSP2 021511Z 23008G13KT 30/17 A3003 RMK A01 T03000168  RH  045%=      5-min Rain = 0
KSP2 021512Z 22011G16KT 30/17 A3003 RMK A01 T03010168  RH  045%=      5-min Rain = 0
KSP2 021513Z 21014KT 30/17 A3003 RMK A01 T03000167  RH  045%=      5-min Rain = 0
KSP2 021514Z 22012KT 30/17 A3003 RMK A01 T02990167  RH  045%=      5-min Rain = 0
KSP2 021515Z 22013KT 30/17 A3003 RMK A01 T02980167  RH  045%=      5-min Rain = 0
KSP2 021516Z 22011KT 30/17 A3003 RMK A01 T02970167  RH  045%=      5-min Rain = 0
KSP2 021517Z 22012KT 30/17 A3003 RMK A01 T02960166  RH  045%=      5-min Rain = 0
KSP2 021518Z 21010KT 30/17 A3003 RMK A01 T02960166  RH  045%=      5-min Rain = 0
KSP2 021519Z 21010KT 30/17 A3003 RMK A01 T02970167  RH  045%=      5-min Rain = 0
KSP2 021520Z 23011KT 30/17 A3003 RMK A01 T02970167  RH  046%=      5-min Rain = 0
KSP2 021521Z 24010KT 30/17 A3003 RMK A01 T02980167  RH  045%=      5-min Rain = 0
KSP2 021522Z 23011KT 30/17 A3003 RMK A01 T02970167  RH  046%=      5-min Rain = 0
KSP2 021523Z 21011KT 30/17 A3003 RMK A01 T02980167  RH  045%=      5-min Rain = 0
KSP2 021524Z 21010KT 30/17 A3003 RMK A01 T03000167  RH  045%=      5-min Rain = 0
KSP2 021525Z 22010KT 30/17 A3003 RMK A01 T03020166  RH  044%=      5-min Rain = 0
KSP2 021526Z 22009KT 30/17 A3003 RMK A01 T03020166  RH  044%=      5-min Rain = 0
KSP2 021527Z 21009KT 30/17 A3003 RMK A01 T03030168  RH  044%=      5-min Rain = 0
KSP2 021528Z 19011KT 30/17 A3003 RMK A01 T03020168  RH  045%=      5-min Rain = 0
KSP2 021529Z 20012KT 30/17 A3003 RMK A01 T03030170  RH  045%=      5-min Rain = 0
KSP2 021530Z 22012KT 30/17 A3003 RMK A01 T03040166  RH  044%=      5-min Rain = 0
KSP2 021531Z 22010KT 30/17 A3003 RMK A01 T03030167  RH  044%=      5-min Rain = 0
KSP2 021532Z 23011KT 31/17 A3003 RMK A01 T03070168  RH  043%=      5-min Rain = 0
KSP2 021533Z 21010KT 31/17 A3003 RMK A01 T03060167  RH  043%=      5-min Rain = 0
KSP2 021534Z 21010KT 30/17 A3003 RMK A01 T03040167  RH  043%=      5-min Rain = 0
KSP2 021535Z 20010KT 31/17 A3003 RMK A01 T03050167  RH  043%=      5-min Rain = 0
KSP2 021536Z 21012KT 31/17 A3003 RMK A01 T03080168  RH  043%=      5-min Rain = 0
KSP2 021537Z 22008KT 31/17 A3003 RMK A01 T03060166  RH  043%=      5-min Rain = 0
KSP2 021538Z 20011KT 30/17 A3003 RMK A01 T03040167  RH  044%=      5-min Rain = 0
KSP2 021539Z 21009KT 30/17 A3003 RMK A01 T03040167  RH  044%=      5-min Rain = 0
KSP2 021540Z 21008KT 30/17 A3003 RMK A01 T03040168  RH  044%=      5-min Rain = 0
KSP2 021541Z 22009KT 31/17 A3003 RMK A01 T03060168  RH  044%=      5-min Rain = 0
KSP2 021542Z 24010KT 31/17 A3003 RMK A01 T03080168  RH  043%=      5-min Rain = 0
KSP2 021543Z 23009KT 31/17 A3003 RMK A01 T03090167  RH  043%=      5-min Rain = 0
KSP2 021544Z 23011KT 31/17 A3003 RMK A01 T03110169  RH  042%=      5-min Rain = 0
KSP2 021545Z 23008KT 31/17 A3003 RMK A01 T03110167  RH  042%=      5-min Rain = 0
KSP2 021546Z 20011KT 31/17 A3003 RMK A01 T03100167  RH  042%=      5-min Rain = 0
KSP2 021547Z 23009KT 31/17 A3003 RMK A01 T03100166  RH  042%=      5-min Rain = 0
KSP2 021548Z 23010KT 31/17 A3003 RMK A01 T03090165  RH  042%=      5-min Rain = 0
KSP2 021549Z 23008KT 31/16 A3003 RMK A01 T03050164  RH  043%=      5-min Rain = 0
KSP2 021550Z 23012KT 31/17 A3003 RMK A01 T03050165  RH  043%=      5-min Rain = 0
KSP2 021551Z 23010KT 31/16 A3003 RMK A01 T03060164  RH  042%=      5-min Rain = 0
KSP2 021552Z 21010KT 31/17 A3003 RMK A01 T03060165  RH  043%=      5-min Rain = 0
KSP2 021553Z 22010KT 31/17 A3003 RMK A01 T03100166  RH  042%=      5-min Rain = 0
KSP2 021554Z 20011KT 31/17 A3003 RMK A01 T03120166  RH  041%=      5-min Rain = 0
KSP2 021555Z 21009KT 31/17 A3003 RMK A01 T03110165  RH  041%=      5-min Rain = 0
KSP2 021556Z 21009KT 31/17 A3003 RMK A01 T03110166  RH  042%=      5-min Rain = 0
KSP2 021557Z 22010KT 31/17 A3003 RMK A01 T03120167  RH  042%=      5-min Rain = 0
KSP2 021558Z 20009KT 31/17 A3003 RMK A01 T03130167  RH  041%=      5-min Rain = 0
KSP2 021559Z 20009KT 31/17 A3003 RMK A01 T03130167  RH  041%=      5-min Rain = 0
KSP2 021600Z 21010KT 31/17 A3003 RMK A01 T03130167  RH  041%=      5-min Rain = 0
KSP2 021601Z 21007KT 31/17 A3003 RMK A01 T03140168  RH  042%=      5-min Rain = 0
KSP2 021602Z 20005KT 32/17 A3003 RMK A01 T03170168  RH  041%=      5-min Rain = 0
KSP2 021603Z 22009KT 32/17 A3003 RMK A01 T03190170  RH  041%=      5-min Rain = 0
KSP2 021604Z 22009G14KT 32/17 A3003 RMK A01 T03210169  RH  040%=      5-min Rain = 0
KSP2 021605Z 22007KT 32/17 A3003 RMK A01 T03190168  RH  040%=      5-min Rain = 0
KSP2 021606Z 22010KT 32/17 A3003 RMK A01 T03200169  RH  040%=      5-min Rain = 0
KSP2 021607Z 21010KT 32/17 A3003 RMK A01 T03200167  RH  040%=      5-min Rain = 0
KSP2 021608Z 21010KT 32/17 A3003 RMK A01 T03170167  RH  041%=      5-min Rain = 0
KSP2 021609Z 23012KT 32/17 A3003 RMK A01 T03180165  RH  040%=      5-min Rain = 0
KSP2 021610Z 24011KT 32/16 A3003 RMK A01 T03170161  RH  039%=      5-min Rain = 0
KSP2 021611Z 25009KT 31/16 A3003 RMK A01 T03140161  RH  040%=      5-min Rain = 0
KSP2 021612Z 24008KT 32/16 A3003 RMK A01 T03160160  RH  039%=      5-min Rain = 0
KSP2 021613Z 25006KT 32/16 A3003 RMK A01 T03160161  RH  039%=      5-min Rain = 0
KSP2 021614Z 25008KT 31/16 A3003 RMK A01 T03140162  RH  040%=      5-min Rain = 0
KSP2 021615Z 24010KT 31/16 A3003 RMK A01 T03140163  RH  040%=      5-min Rain = 0
KSP2 021616Z 23009KT 32/16 A3003 RMK A01 T03150163  RH  040%=      5-min Rain = 0
KSP2 021617Z 24008KT 32/16 A3003 RMK A01 T03190163  RH  039%=      5-min Rain = 0
KSP2 021618Z 24006KT 32/16 A3003 RMK A01 T03200160  RH  038%=      5-min Rain = 0
KSP2 021619Z 23006KT 32/16 A3003 RMK A01 T03160160  RH  039%=      5-min Rain = 0
KSP2 021620Z 23006KT 32/16 A3003 RMK A01 T03160159  RH  039%=      5-min Rain = 0
KSP2 021621Z 23004KT 32/16 A3003 RMK A01 T03160157  RH  038%=      5-min Rain = 0
KSP2 021622Z 22009KT 32/17 A3003 RMK A01 T03170165  RH  040%=      5-min Rain = 0
KSP2 021623Z 21007KT 32/16 A3003 RMK A01 T03210164  RH  039%=      5-min Rain = 0
KSP2 021624Z 23007KT 32/16 A3003 RMK A01 T03230163  RH  038%=      5-min Rain = 0
KSP2 021625Z 25008KT 33/16 A3003 RMK A01 T03250161  RH  037%=      5-min Rain = 0
KSP2 021626Z 24006KT 33/16 A3003 RMK A01 T03250161  RH  037%=      5-min Rain = 0
KSP2 021627Z 24005KT 32/16 A3003 RMK A01 T03220160  RH  038%=      5-min Rain = 0
KSP2 021628Z 23005KT 32/16 A3003 RMK A01 T03210160  RH  038%=      5-min Rain = 0
KSP2 021629Z 20009KT 32/16 A3003 RMK A01 T03240164  RH  038%=      5-min Rain = 0
KSP2 021630Z 24008KT 33/16 A3003 RMK A01 T03250162  RH  038%=      5-min Rain = 0
KSP2 021631Z 25006KT 32/16 A3003 RMK A01 T03240161  RH  037%=      5-min Rain = 0
KSP2 021632Z 22004KT 32/16 A3003 RMK A01 T03240160  RH  037%=      5-min Rain = 0
KSP2 021633Z 23007KT 32/16 A3003 RMK A01 T03240163  RH  038%=      5-min Rain = 0
KSP2 021634Z 21008KT 33/16 A3003 RMK A01 T03260164  RH  038%=      5-min Rain = 0
KSP2 021635Z 19008KT 33/16 A3003 RMK A01 T03260164  RH  038%=      5-min Rain = 0
KSP2 021636Z 19006KT 33/16 A3003 RMK A01 T03250163  RH  038%=      5-min Rain = 0
KSP2 021637Z 20008KT 32/16 A3003 RMK A01 T03240163  RH  038%=      5-min Rain = 0
KSP2 021638Z 20007KT 33/16 A3003 RMK A01 T03260161  RH  037%=      5-min Rain = 0
KSP2 021639Z 20004KT 33/16 A3003 RMK A01 T03270159  RH  036%=      5-min Rain = 0
KSP2 021640Z 17004KT 33/16 A3003 RMK A01 T03280158  RH  036%=      5-min Rain = 0
KSP2 021641Z 16005KT 33/16 A3003 RMK A01 T03260162  RH  037%=      5-min Rain = 0
KSP2 021642Z 20005KT 33/16 A3003 RMK A01 T03270163  RH  037%=      5-min Rain = 0
KSP2 021643Z 23005KT 33/16 A3003 RMK A01 T03310164  RH  037%=      5-min Rain = 0
KSP2 021644Z 24006KT 34/16 A3003 RMK A01 T03350161  RH  035%=      5-min Rain = 0
KSP2 021645Z 24005KT 34/16 A3003 RMK A01 T03360157  RH  034%=      5-min Rain = 0
KSP2 021646Z 27006KT 34/15 A3003 RMK A01 T03350153  RH  034%=      5-min Rain = 0
KSP2 021647Z 24005KT 33/15 A3003 RMK A01 T03330153  RH  034%=      5-min Rain = 0
KSP2 021648Z 23005KT 33/15 A3003 RMK A01 T03330151  RH  033%=      5-min Rain = 0
KSP2 021649Z 22004KT 33/15 A3003 RMK A01 T03300148  RH  034%=      5-min Rain = 0
KSP2 021650Z 20004KT 33/15 A3003 RMK A01 T03290152  RH  035%=      5-min Rain = 0
KSP2 021651Z 19007KT 33/15 A3003 RMK A01 T03310151  RH  034%=      5-min Rain = 0
KSP2 021652Z 17006KT 33/15 A3003 RMK A01 T03310149  RH  033%=      5-min Rain = 0
KSP2 021653Z 18005KT 33/15 A3003 RMK A01 T03300149  RH  034%=      5-min Rain = 0
KSP2 021654Z 20006KT 33/15 A3003 RMK A01 T03300152  RH  034%=      5-min Rain = 0
KSP2 021655Z 22005KT 33/15 A3003 RMK A01 T03340154  RH  034%=      5-min Rain = 0
KSP2 021656Z 21005KT 34/15 A3003 RMK A01 T03350153  RH  034%=      5-min Rain = 0
KSP2 021657Z 20003KT 33/15 A3003 RMK A01 T03320153  RH  034%=      5-min Rain = 0
KSP2 021658Z 22003KT 33/15 A3003 RMK A01 T03300153  RH  035%=      5-min Rain = 0
KSP2 021659Z 21007KT 33/15 A3003 RMK A01 T03300151  RH  034%=      5-min Rain = 0
KSP2 021700Z 22005KT 33/15 A3003 RMK A01 T03330150  RH  033%=      5-min Rain = 0
KSP2 021701Z 21005KT 34/15 A3003 RMK A01 T03370147  RH  032%=      5-min Rain = 0
KSP2 021702Z 21004KT 34/15 A3003 RMK A01 T03360146  RH  032%=      5-min Rain = 0
KSP2 021703Z 22003KT 33/15 A3003 RMK A01 T03340150  RH  033%=      5-min Rain = 0
KSP2 021704Z 19004KT 34/15 A3003 RMK A01 T03350151  RH  033%=      5-min Rain = 0
KSP2 021705Z 19005KT 34/15 A3003 RMK A01 T03370149  RH  032%=      5-min Rain = 0
KSP2 021706Z 24006KT 34/15 A3003 RMK A01 T03370151  RH  033%=      5-min Rain = 0
KSP2 021707Z 25005KT 34/15 A3003 RMK A01 T03410152  RH  032%=      5-min Rain = 0
KSP2 021708Z 24003G8KT 34/15 A3003 RMK A01 T03410151  RH  032%=      5-min Rain = 0
KSP2 021709Z 23008KT 34/15 A3003 RMK A01 T03410152  RH  032%=      5-min Rain = 0
KSP2 021710Z 23006KT 34/15 A3003 RMK A01 T03390151  RH  032%=      5-min Rain = 0
KSP2 021711Z 20005G10KT 34/15 A3003 RMK A01 T03370151  RH  033%=      5-min Rain = 0
KSP2 021712Z 19008KT 34/15 A3003 RMK A01 T03360152  RH  033%=      5-min Rain = 0
KSP2 021713Z 20008KT 34/15 A3003 RMK A01 T03370154  RH  033%=      5-min Rain = 0
KSP2 021714Z 19009KT 34/15 A3003 RMK A01 T03400153  RH  033%=      5-min Rain = 0
KSP2 021715Z 17006KT 34/15 A3003 RMK A01 T03380152  RH  033%=      5-min Rain = 0
KSP2 021716Z 19005KT 33/15 A3003 RMK A01 T03340152  RH  034%=      5-min Rain = 0
KSP2 021717Z 15008KT 33/15 A3003 RMK A01 T03330154  RH  034%=      5-min Rain = 0
KSP2 021718Z 15009KT 34/15 A3003 RMK A01 T03390152  RH  033%=      5-min Rain = 0
KSP2 021719Z 15009KT 34/15 A3003 RMK A01 T03420149  RH  032%=      5-min Rain = 0
KSP2 021720Z 14008KT 34/15 A3003 RMK A01 T03400148  RH  032%=      5-min Rain = 0
KSP2 021721Z 16007KT 34/15 A3003 RMK A01 T03380149  RH  032%=      5-min Rain = 0
KSP2 021722Z 17007KT 34/15 A3003 RMK A01 T03370147  RH  032%=      5-min Rain = 0
KSP2 021723Z 19006KT 34/15 A3003 RMK A01 T03370148  RH  032%=      5-min Rain = 0
KSP2 021724Z 19005KT 34/15 A3003 RMK A01 T03380148  RH  032%=      5-min Rain = 0
KSP2 021725Z 17002KT 34/15 A3003 RMK A01 T03360148  RH  032%=      5-min Rain = 0
KSP2 021726Z 22001KT 33/15 A3003 RMK A01 T03330149  RH  033%=      5-min Rain = 0
KSP2 021727Z 18006G14KT 34/15 A3003 RMK A01 T03360151  RH  033%=      5-min Rain = 0
KSP2 021728Z 17010KT 34/15 A3003 RMK A01 T03400152  RH  032%=      5-min Rain = 0
KSP2 021729Z 18007KT 34/15 A3003 RMK A01 T03390151  RH  033%=      5-min Rain = 0
KSP2 021730Z 17004KT 34/15 A3003 RMK A01 T03390152  RH  033%=      5-min Rain = 0
KSP2 021731Z 17005KT 34/15 A3003 RMK A01 T03410153  RH  033%=      5-min Rain = 0
KSP2 021732Z 16009KT 34/15 A3003 RMK A01 T03420153  RH  032%=      5-min Rain = 0
KSP2 021733Z 14008KT 34/16 A3003 RMK A01 T03440155  RH  032%=      5-min Rain = 0
KSP2 021734Z 17010KT 35/16 A3003 RMK A01 T03450156  RH  032%=      5-min Rain = 0
KSP2 021735Z 18010KT 35/16 A3003 RMK A01 T03450156  RH  032%=      5-min Rain = 0
KSP2 021736Z 17010KT 35/16 A3003 RMK A01 T03470157  RH  032%=      5-min Rain = 0
KSP2 021737Z 17008KT 35/16 A3003 RMK A01 T03470155  RH  032%=      5-min Rain = 0
KSP2 021738Z 19006KT 34/15 A3003 RMK A01 T03440152  RH  032%=      5-min Rain = 0
KSP2 021739Z 20006KT 34/15 A3003 RMK A01 T03420151  RH  032%=      5-min Rain = 0
KSP2 021740Z 16006KT 34/15 A3003 RMK A01 T03420150  RH  032%=      5-min Rain = 0
KSP2 021741Z 16007KT 34/15 A3003 RMK A01 T03400153  RH  033%=      5-min Rain = 0
KSP2 021742Z 19006KT 34/15 A3003 RMK A01 T03430154  RH  032%=      5-min Rain = 0
KSP2 021743Z 17007KT 34/16 A3003 RMK A01 T03440155  RH  032%=      5-min Rain = 0
KSP2 021744Z 19009KT 34/16 A3003 RMK A01 T03440156  RH  033%=      5-min Rain = 0
KSP2 021745Z 19007KT 34/16 A3003 RMK A01 T03440156  RH  032%=      5-min Rain = 0
KSP2 021746Z 17009KT 34/16 A3003 RMK A01 T03430158  RH  033%=      5-min Rain = 0
KSP2 021747Z 17007KT 35/16 A3003 RMK A01 T03470161  RH  033%=      5-min Rain = 0
KSP2 021748Z 17010KT 35/16 A3003 RMK A01 T03540159  RH  032%=      5-min Rain = 0
KSP2 021749Z 18009KT 35/16 A3003 RMK A01 T03510156  RH  031%=      5-min Rain = 0
KSP2 021750Z 18006KT 35/15 A3003 RMK A01 T03470154  RH  032%=      5-min Rain = 0
KSP2 021751Z 16008KT 34/16 A3003 RMK A01 T03430155  RH  033%=      5-min Rain = 0
KSP2 021752Z 15012KT 35/15 A3003 RMK A01 T03450152  RH  032%=      5-min Rain = 0
KSP2 021753Z 15010KT 35/15 A3003 RMK A01 T03450151  RH  031%=      5-min Rain = 0
KSP2 021754Z 15009KT 35/15 A3003 RMK A01 T03450153  RH  032%=      5-min Rain = 0
KSP2 021755Z 14010KT 35/15 A3003 RMK A01 T03460153  RH  032%=      5-min Rain = 0
KSP2 021756Z 16010KT 35/15 A3003 RMK A01 T03470154  RH  032%=      5-min Rain = 0
KSP2 021757Z 15007KT 35/15 A3003 RMK A01 T03480153  RH  031%=      5-min Rain = 0
KSP2 021758Z 16002KT 35/15 A3003 RMK A01 T03460152  RH  031%=      5-min Rain = 0
KSP2 021759Z 16006G12KT 35/15 A3003 RMK A01 T03460151  RH  031%=      5-min Rain = 0
KSP2 021800Z 14009KT 35/15 A3003 RMK A01 T03470152  RH  031%=      5-min Rain = 0
KSP2 021801Z 16005KT 35/15 A3003 RMK A01 T03450151  RH  031%=      5-min Rain = 0
KSP2 021802Z 17008KT 34/15 A3003 RMK A01 T03440154  RH  032%=      5-min Rain = 0
KSP2 021803Z 18008KT 35/16 A3003 RMK A01 T03490155  RH  031%=      5-min Rain = 0
KSP2 021804Z 17008KT 35/16 A3003 RMK A01 T03520155  RH  031%=      5-min Rain = 0
KSP2 021805Z 18009KT 35/16 A3003 RMK A01 T03510155  RH  031%=      5-min Rain = 0
KSP2 021806Z 19010KT 35/16 A3003 RMK A01 T03530157  RH  031%=      5-min Rain = 0
KSP2 021807Z 18007KT 35/16 A3003 RMK A01 T03530155  RH  031%=      5-min Rain = 0
KSP2 021808Z 20005KT 35/15 A3003 RMK A01 T03510154  RH  031%=      5-min Rain = 0
KSP2 021809Z 21004KT 35/15 A3003 RMK A01 T03470153  RH  031%=      5-min Rain = 0
KSP2 021810Z 17004KT 35/15 A3003 RMK A01 T03480154  RH  031%=      5-min Rain = 0
KSP2 021811Z 18004KT 35/15 A3003 RMK A01 T03470153  RH  031%=      5-min Rain = 0
KSP2 021812Z 18006KT 35/16 A3003 RMK A01 T03460155  RH  032%=      5-min Rain = 0
KSP2 021813Z 13008KT 35/15 A3003 RMK A01 T03500154  RH  031%=      5-min Rain = 0
KSP2 021814Z 12006KT 35/16 A3003 RMK A01 T03500155  RH  031%=      5-min Rain = 0
KSP2 021815Z 11007KT 35/16 A3002 RMK A01 T03510158  RH  032%=      5-min Rain = 0
KSP2 021816Z 12005KT 35/16 A3002 RMK A01 T03530157  RH  031%=      5-min Rain = 0
KSP2 021817Z 17009KT 35/16 A3002 RMK A01 T03520159  RH  032%=      5-min Rain = 0
KSP2 021818Z 18008KT 35/16 A3002 RMK A01 T03500160  RH  032%=      5-min Rain = 0
KSP2 021819Z 16012KT 35/16 A3002 RMK A01 T03530159  RH  032%=      5-min Rain = 0
KSP2 021820Z 17009KT 35/16 A3002 RMK A01 T03530156  RH  031%=      5-min Rain = 0
KSP2 021821Z 15005KT 35/16 A3002 RMK A01 T03510156  RH  031%=      5-min Rain = 0
KSP2 021822Z 16003KT 35/16 A3002 RMK A01 T03500157  RH  032%=      5-min Rain = 0
KSP2 021823Z 16007KT 35/16 A3002 RMK A01 T03520159  RH  032%=      5-min Rain = 0
KSP2 021824Z 18006KT 36/16 A3002 RMK A01 T03570157  RH  030%=      5-min Rain = 0
KSP2 021825Z 14008KT 36/16 A3002 RMK A01 T03580156  RH  030%=      5-min Rain = 0
KSP2 021826Z 13010KT 36/15 A3002 RMK A01 T03560151  RH  029%=      5-min Rain = 0
KSP2 021827Z 13008KT 35/15 A3002 RMK A01 T03530150  RH  030%=      5-min Rain = 0
KSP2 021828Z 14005KT 35/15 A3002 RMK A01 T03500150  RH  030%=      5-min Rain = 0
KSP2 021829Z 13009KT 35/15 A3002 RMK A01 T03520148  RH  030%=      5-min Rain = 0
KSP2 021830Z 14007KT 35/15 A3002 RMK A01 T03530145  RH  029%=      5-min Rain = 0
KSP2 021831Z 15010KT 35/15 A3002 RMK A01 T03510145  RH  029%=      5-min Rain = 0
KSP2 021832Z 13008KT 35/15 A3002 RMK A01 T03500146  RH  029%=      5-min Rain = 0
KSP2 021833Z 08008KT 35/15 A3002 RMK A01 T03480146  RH  030%=      5-min Rain = 0
KSP2 021834Z 11011G17KT 35/15 A3002 RMK A01 T03480149  RH  030%=      5-min Rain = 0
KSP2 021835Z 13010KT 35/15 A3002 RMK A01 T03510154  RH  031%=      5-min Rain = 0
KSP2 021836Z 14010KT 35/16 A3002 RMK A01 T03530157  RH  031%=      5-min Rain = 0
KSP2 021837Z 12009G14KT 35/15 A3002 RMK A01 T03540154  RH  030%=      5-min Rain = 0
KSP2 021838Z 11008KT 35/16 A3002 RMK A01 T03520155  RH  031%=      5-min Rain = 0
KSP2 021839Z 17011KT 35/16 A3002 RMK A01 T03540155  RH  031%=      5-min Rain = 0
KSP2 021840Z 18010KT 35/15 A3001 RMK A01 T03530153  RH  030%=      5-min Rain = 0
KSP2 021841Z 18009KT 36/15 A3001 RMK A01 T03560154  RH  030%=      5-min Rain = 0
KSP2 021842Z 17010KT 36/15 A3001 RMK A01 T03570152  RH  030%=      5-min Rain = 0
KSP2 021843Z 17008KT 36/15 A3001 RMK A01 T03550153  RH  030%=      5-min Rain = 0
KSP2 021844Z 17006KT 35/15 A3001 RMK A01 T03540150  RH  030%=      5-min Rain = 0
KSP2 021845Z 13011KT 35/15 A3001 RMK A01 T03530150  RH  030%=      5-min Rain = 0
KSP2 021846Z 13011KT 35/15 A3001 RMK A01 T03530149  RH  030%=      5-min Rain = 0
KSP2 021847Z 15014KT 35/15 A3001 RMK A01 T03520152  RH  030%=      5-min Rain = 0
KSP2 021848Z 16013KT 36/15 A3001 RMK A01 T03560151  RH  030%=      5-min Rain = 0
KSP2 021849Z 15007KT 35/15 A3001 RMK A01 T03540152  RH  030%=      5-min Rain = 0
KSP2 021850Z 15010KT 35/15 A3001 RMK A01 T03510154  RH  031%=      5-min Rain = 0
KSP2 021851Z 15010KT 35/15 A3001 RMK A01 T03530154  RH  031%=      5-min Rain = 0
KSP2 021852Z 13007KT 35/15 A3001 RMK A01 T03530154  RH  031%=      5-min Rain = 0
KSP2 021853Z 15007KT 35/16 A3001 RMK A01 T03530155  RH  031%=      5-min Rain = 0
KSP2 021854Z 16011KT 36/16 A3001 RMK A01 T03550156  RH  031%=      5-min Rain = 0
KSP2 021855Z 18011KT 36/16 A3001 RMK A01 T03580156  RH  030%=      5-min Rain = 0
KSP2 021856Z 16012KT 36/16 A3001 RMK A01 T03570157  RH  030%=      5-min Rain = 0
KSP2 021857Z 15014KT 36/16 A3001 RMK A01 T03580158  RH  030%=      5-min Rain = 0
KSP2 021858Z 16012G17KT 36/16 A3001 RMK A01 T03610155  RH  029%=      5-min Rain = 0
KSP2 021859Z 15011G19KT 36/15 A3001 RMK A01 T03610154  RH  029%=      5-min Rain = 0
KSP2 021900Z 15015KT 36/15 A3001 RMK A01 T03600152  RH  029%=      5-min Rain = 0
KSP2 021901Z 16016KT 36/15 A3001 RMK A01 T03610152  RH  029%=      5-min Rain = 0
KSP2 021902Z 15013KT 36/15 A3001 RMK A01 T03600151  RH  029%=      5-min Rain = 0
KSP2 021903Z 16012KT 36/15 A3001 RMK A01 T03570148  RH  029%=      5-min Rain = 0
KSP2 021904Z 15014G19KT 36/15 A3001 RMK A01 T03550148  RH  029%=      5-min Rain = 0
KSP2 021905Z 15010KT 36/15 A3001 RMK A01 T03550147  RH  029%=      5-min Rain = 0
KSP2 021906Z 14011KT 35/15 A3001 RMK A01 T03530147  RH  029%=      5-min Rain = 0
KSP2 021907Z 16010KT 35/15 A3001 RMK A01 T03540147  RH  029%=      5-min Rain = 0
KSP2 021908Z 18010KT 36/15 A3001 RMK A01 T03550145  RH  029%=      5-min Rain = 0
KSP2 021909Z 17007KT 36/14 A3001 RMK A01 T03550144  RH  028%=      5-min Rain = 0
KSP2 021910Z 16005KT 35/15 A3001 RMK A01 T03540146  RH  029%=      5-min Rain = 0
KSP2 021911Z 15011KT 36/15 A3001 RMK A01 T03560151  RH  030%=      5-min Rain = 0
KSP2 021912Z 16009KT 36/15 A3001 RMK A01 T03590152  RH  029%=      5-min Rain = 0
KSP2 021913Z 16008KT 36/15 A3001 RMK A01 T03590153  RH  029%=      5-min Rain = 0
KSP2 021914Z 17008KT 36/15 A3001 RMK A01 T03590153  RH  029%=      5-min Rain = 0
KSP2 021915Z 14011KT 36/15 A3001 RMK A01 T03560152  RH  030%=      5-min Rain = 0
KSP2 021916Z 15013KT 36/15 A3001 RMK A01 T03580154  RH  030%=      5-min Rain = 0
KSP2 021917Z 16015KT 36/15 A3001 RMK A01 T03610151  RH  029%=      5-min Rain = 0
KSP2 021918Z 17013KT 36/15 A3001 RMK A01 T03590148  RH  029%=      5-min Rain = 0
KSP2 021919Z 16011KT 36/15 A3001 RMK A01 T03580149  RH  029%=      5-min Rain = 0
KSP2 021920Z 15010KT 36/15 A3001 RMK A01 T03590153  RH  029%=      5-min Rain = 0
KSP2 021921Z 16008KT 36/15 A3001 RMK A01 T03590154  RH  030%=      5-min Rain = 0
KSP2 021922Z 16009KT 36/15 A3001 RMK A01 T03590153  RH  029%=      5-min Rain = 0
KSP2 021923Z 14008KT 36/15 A30 RMK A01 T03600154  RH  029%=      5-min Rain = 0
KSP2 021924Z 15010KT 36/15 A30 RMK A01 T03600154  RH  029%=      5-min Rain = 0
KSP2 021925Z 18009KT 37/15 A30 RMK A01 T03650151  RH  028%=      5-min Rain = 0
KSP2 021926Z 17008KT 36/15 A30 RMK A01 T03610149  RH  028%=      5-min Rain = 0
KSP2 021927Z 15009G16KT 36/15 A30 RMK A01 T03570150  RH  029%=      5-min Rain = 0
KSP2 021928Z 14012KT 36/15 A30 RMK A01 T03570153  RH  030%=      5-min Rain = 0
KSP2 021929Z 13008KT 36/15 A30 RMK A01 T03570153  RH  030%=      5-min Rain = 0
KSP2 021930Z 14006KT 36/15 A30 RMK A01 T03570152  RH  030%=      5-min Rain = 0
KSP2 021931Z 16010G15KT 36/15 A30 RMK A01 T03570152  RH  029%=      5-min Rain = 0
KSP2 021932Z 17014KT 36/15 A30 RMK A01 T03590149  RH  029%=      5-min Rain = 0
KSP2 021933Z 18013KT 36/15 A30 RMK A01 T03600151  RH  029%=      5-min Rain = 0
KSP2 021934Z 17013KT 36/15 A30 RMK A01 T03620154  RH  029%=      5-min Rain = 0
KSP2 021935Z 17013KT 37/15 A30 RMK A01 T03660153  RH  028%=      5-min Rain = 0
KSP2 021936Z 14009KT 36/15 A30 RMK A01 T03600150  RH  029%=      5-min Rain = 0
KSP2 021937Z 15007KT 36/15 A30 RMK A01 T03560150  RH  029%=      5-min Rain = 0
KSP2 021938Z 17008KT 36/15 A30 RMK A01 T03550153  RH  030%=      5-min Rain = 0
KSP2 021939Z 17006KT 36/15 A30 RMK A01 T03550154  RH  030%=      5-min Rain = 0
KSP2 021940Z 18009G14KT 36/16 A30 RMK A01 T03590160  RH  031%=      5-min Rain = 0
KSP2 021941Z 15013KT 36/16 A30 RMK A01 T03640160  RH  030%=      5-min Rain = 0
KSP2 021942Z 16017KT 37/16 A30 RMK A01 T03660160  RH  029%=      5-min Rain = 0
KSP2 021943Z 16014KT 36/16 A30 RMK A01 T03640158  RH  030%=      5-min Rain = 0
KSP2 021944Z 15013KT 36/16 A30 RMK A01 T03620157  RH  030%=      5-min Rain = 0
KSP2 021945Z 18011KT 36/16 A30 RMK A01 T03610158  RH  030%=      5-min Rain = 0
KSP2 021946Z 18010KT 36/16 A30 RMK A01 T03590157  RH  030%=      5-min Rain = 0
KSP2 021947Z 17014G19KT 36/16 A30 RMK A01 T03560159  RH  031%=      5-min Rain = 0
KSP2 021948Z 17017KT 36/16 A30 RMK A01 T03590157  RH  030%=      5-min Rain = 0
KSP2 021949Z 18015KT 36/15 A30 RMK A01 T03600153  RH  029%=      5-min Rain = 0
KSP2 021950Z 18010KT 36/15 A30 RMK A01 T03590152  RH  029%=      5-min Rain = 0
KSP2 021951Z 16012KT 37/16 A30 RMK A01 T03650156  RH  029%=      5-min Rain = 0
KSP2 021952Z 15009KT 36/16 A30 RMK A01 T03630155  RH  029%=      5-min Rain = 0
KSP2 021953Z 17012KT 36/16 A30 RMK A01 T03610156  RH  030%=      5-min Rain = 0
KSP2 021954Z 16013G18KT 36/16 A30 RMK A01 T03640156  RH  029%=      5-min Rain = 0
KSP2 021955Z 15013KT 37/15 A30 RMK A01 T03690154  RH  028%=      5-min Rain = 0
KSP2 021956Z 16012KT 37/15 A30 RMK A01 T03700152  RH  027%=      5-min Rain = 0
KSP2 021957Z 15010KT 37/15 A30 RMK A01 T03670153  RH  028%=      5-min Rain = 0
KSP2 021958Z 17010KT 37/15 A30 RMK A01 T03670154  RH  028%=      5-min Rain = 0
KSP2 021959Z 19009G14KT 37/15 A2999 RMK A01 T03700153  RH  028%=      5-min Rain = 0
KSP2 022000Z 17011KT 37/15 A2999 RMK A01 T03700152  RH  027%=      5-min Rain = 0
KSP2 022001Z 16010G16KT 37/15 A2999 RMK A01 T03660151  RH  028%=      5-min Rain = 0
KSP2 022002Z 17015KT 37/15 A2999 RMK A01 T03670150  RH  027%=      5-min Rain = 0
KSP2 022003Z 16013KT 36/15 A2999 RMK A01 T03640148  RH  028%=      5-min Rain = 0
KSP2 022004Z 14011KT 36/14 A30 RMK A01 T03620143  RH  027%=      5-min Rain = 0
KSP2 022005Z 15011KT 36/15 A30 RMK A01 T03610146  RH  028%=      5-min Rain = 0
KSP2 022006Z 16010KT 37/15 A30 RMK A01 T03650146  RH  027%=      5-min Rain = 0
KSP2 022007Z 14007KT 36/14 A2999 RMK A01 T03620143  RH  027%=      5-min Rain = 0
KSP2 022008Z 14007KT 36/15 A2999 RMK A01 T03600145  RH  028%=      5-min Rain = 0
KSP2 022009Z 13009G16KT 36/15 A2999 RMK A01 T03600148  RH  028%=      5-min Rain = 0
KSP2 022010Z 14011KT 36/15 A2999 RMK A01 T03580147  RH  028%=      5-min Rain = 0
KSP2 022011Z 14010G16KT 36/15 A2999 RMK A01 T03570146  RH  028%=      5-min Rain = 0
KSP2 022012Z 14015KT 36/15 A2999 RMK A01 T03580145  RH  028%=      5-min Rain = 0
KSP2 022013Z 13007KT 36/14 A2999 RMK A01 T03580142  RH  028%=      5-min Rain = 0
KSP2 022014Z 16008KT 36/15 A2999 RMK A01 T03560145  RH  028%=      5-min Rain = 0
KSP2 022015Z 14009KT 36/14 A2999 RMK A01 T03590143  RH  028%=      5-min Rain = 0
KSP2 022016Z 13010KT 36/14 A2999 RMK A01 T03620141  RH  027%=      5-min Rain = 0
KSP2 022017Z 11007KT 36/15 A2999 RMK A01 T03610148  RH  028%=      5-min Rain = 0
KSP2 022018Z 13007KT 36/15 A2999 RMK A01 T03600149  RH  029%=      5-min Rain = 0
KSP2 022019Z 15007KT 36/15 A2999 RMK A01 T03580150  RH  029%=      5-min Rain = 0
KSP2 022020Z 16010G18KT 36/15 A2999 RMK A01 T03600153  RH  029%=      5-min Rain = 0
KSP2 022021Z 18014KT 37/15 A2999 RMK A01 T03650151  RH  028%=      5-min Rain = 0
KSP2 022022Z 17012KT 37/15 A2999 RMK A01 T03690154  RH  028%=      5-min Rain = 0
KSP2 022023Z 17010KT 37/16 A2999 RMK A01 T03700156  RH  028%=      5-min Rain = 0
KSP2 022024Z 15013KT 38/16 A2999 RMK A01 T03780155  RH  027%=      5-min Rain = 0
KSP2 022025Z 17012KT 38/15 A2999 RMK A01 T03760151  RH  026%=      5-min Rain = 0
KSP2 022026Z 17014KT 37/15 A2999 RMK A01 T03710149  RH  027%=      5-min Rain = 0
KSP2 022027Z 17013KT 37/15 A2999 RMK A01 T03700146  RH  026%=      5-min Rain = 0
KSP2 022028Z 16012KT 37/15 A2999 RMK A01 T03700146  RH  026%=      5-min Rain = 0
KSP2 022029Z 17009KT 37/15 A2999 RMK A01 T03680145  RH  027%=      5-min Rain = 0
KSP2 022030Z 17007KT 36/15 A2999 RMK A01 T03640146  RH  027%=      5-min Rain = 0
KSP2 022031Z 17009G14KT 36/15 A2999 RMK A01 T03610148  RH  028%=      5-min Rain = 0
KSP2 022032Z 16011KT 36/15 A2999 RMK A01 T03640153  RH  029%=      5-min Rain = 0
KSP2 022033Z 17013KT 37/15 A2999 RMK A01 T03680153  RH  028%=      5-min Rain = 0
KSP2 022034Z 17012KT 37/15 A2999 RMK A01 T03670152  RH  028%=      5-min Rain = 0
KSP2 022035Z 16012G18KT 36/15 A2999 RMK A01 T03640154  RH  029%=      5-min Rain = 0
KSP2 022036Z 16013G18KT 37/15 A2999 RMK A01 T03690153  RH  028%=      5-min Rain = 0
KSP2 022037Z 16014KT 37/15 A2999 RMK A01 T03720153  RH  027%=      5-min Rain = 0
KSP2 022038Z 17013KT 37/15 A2999 RMK A01 T03720153  RH  027%=      5-min Rain = 0
KSP2 022039Z 16016KT 37/15 A2999 RMK A01 T03720151  RH  027%=      5-min Rain = 0
KSP2 022040Z 18014KT 37/15 A2999 RMK A01 T03690151  RH  027%=      5-min Rain = 0
KSP2 022041Z 17014KT 37/15 A2999 RMK A01 T03700151  RH  027%=      5-min Rain = 0
KSP2 022042Z 17015KT 37/15 A2999 RMK A01 T03720148  RH  026%=      5-min Rain = 0
KSP2 022043Z 18012KT 37/15 A2999 RMK A01 T03680147  RH  027%=      5-min Rain = 0
KSP2 022044Z 18010KT 37/15 A2999 RMK A01 T03660146  RH  027%=      5-min Rain = 0
KSP2 022045Z 18006KT 37/15 A2999 RMK A01 T03660146  RH  027%=      5-min Rain = 0
KSP2 022046Z 17009G14KT 37/15 A2999 RMK A01 T03650148  RH  027%=      5-min Rain = 0
KSP2 022047Z 16014G19KT 37/15 A2999 RMK A01 T03670147  RH  027%=      5-min Rain = 0
KSP2 022048Z 15014G19KT 37/15 A2999 RMK A01 T03660148  RH  027%=      5-min Rain = 0
KSP2 022049Z 16015KT 37/15 A2999 RMK A01 T03660149  RH  028%=      5-min Rain = 0
KSP2 022050Z 15014KT 37/15 A2999 RMK A01 T03660150  RH  028%=      5-min Rain = 0
KSP2 022051Z 14014KT 37/15 A2999 RMK A01 T03650151  RH  028%=      5-min Rain = 0
KSP2 022052Z 14009KT 36/15 A2999 RMK A01 T03630149  RH  028%=      5-min Rain = 0
KSP2 022053Z 14010KT 36/15 A2999 RMK A01 T03620147  RH  028%=      5-min Rain = 0
KSP2 022054Z 13010KT 36/15 A2998 RMK A01 T03610147  RH  028%=      5-min Rain = 0
KSP2 022055Z 13013KT 36/15 A2998 RMK A01 T03600147  RH  028%=      5-min Rain = 0
KSP2 022056Z 15011KT 36/15 A2998 RMK A01 T03620147  RH  028%=      5-min Rain = 0
KSP2 022057Z 14013G19KT 37/15 A2998 RMK A01 T03650149  RH  028%=      5-min Rain = 0
KSP2 022058Z 13014KT 37/15 A2998 RMK A01 T03690150  RH  027%=      5-min Rain = 0
KSP2 022059Z 13011KT 37/15 A2998 RMK A01 T03670150  RH  028%=      5-min Rain = 0
KSP2 022100Z 13009KT 36/15 A2998 RMK A01 T03620147  RH  028%=      5-min Rain = 0
KSP2 022101Z 15011KT 36/15 A2998 RMK A01 T03580147  RH  028%=      5-min Rain = 0
KSP2 022102Z 15012KT 36/15 A2998 RMK A01 T03580148  RH  029%=      5-min Rain = 0
KSP2 022103Z 14013KT 36/15 A2998 RMK A01 T03630150  RH  028%=      5-min Rain = 0
KSP2 022104Z 16010KT 37/15 A2998 RMK A01 T03650149  RH  028%=      5-min Rain = 0
KSP2 022105Z 18013KT 37/15 A2998 RMK A01 T03650150  RH  028%=      5-min Rain = 0
KSP2 022106Z 16016KT 37/15 A2998 RMK A01 T03660152  RH  028%=      5-min Rain = 0
KSP2 022107Z 14018KT 37/15 A2998 RMK A01 T03670151  RH  028%=      5-min Rain = 0
KSP2 022108Z 13014KT 37/15 A2998 RMK A01 T03660149  RH  027%=      5-min Rain = 0
KSP2 022109Z 14013KT 37/15 A2998 RMK A01 T03660151  RH  028%=      5-min Rain = 0
KSP2 022110Z 14014KT 37/15 A2998 RMK A01 T03670149  RH  027%=      5-min Rain = 0
KSP2 022111Z 14009KT 37/15 A2998 RMK A01 T03660152  RH  028%=      5-min Rain = 0
KSP2 022112Z 16008G15KT 37/15 A2998 RMK A01 T03650153  RH  028%=      5-min Rain = 0
KSP2 022113Z 18012KT 37/15 A2998 RMK A01 T03650151  RH  028%=      5-min Rain = 0
KSP2 022114Z 18012KT 36/15 A2998 RMK A01 T03620148  RH  028%=      5-min Rain = 0
KSP2 022115Z 18011KT 36/15 A2998 RMK A01 T03610154  RH  029%=      5-min Rain = 0
KSP2 022116Z 17012KT 37/16 A2998 RMK A01 T03660160  RH  030%=      5-min Rain = 0
KSP2 022117Z 17014KT 37/16 A2998 RMK A01 T03680160  RH  029%=      5-min Rain = 0
KSP2 022118Z 17015KT 37/16 A2998 RMK A01 T03650159  RH  030%=      5-min Rain = 0
KSP2 022119Z 16009KT 36/16 A2998 RMK A01 T03610161  RH  030%=      5-min Rain = 0
KSP2 022120Z 16012G17KT 37/16 A2998 RMK A01 T03650161  RH  030%=      5-min Rain = 0
KSP2 022121Z 15015KT 37/16 A2998 RMK A01 T03660158  RH  029%=      5-min Rain = 0
KSP2 022122Z 15014KT 37/16 A2997 RMK A01 T03650156  RH  029%=      5-min Rain = 0
KSP2 022123Z 16011G17KT 37/16 A2998 RMK A01 T03680159  RH  029%=      5-min Rain = 0
KSP2 022124Z 16015KT 37/16 A2997 RMK A01 T03730157  RH  028%=      5-min Rain = 0
KSP2 022125Z 15012G17KT 37/15 A2997 RMK A01 T03730154  RH  027%=      5-min Rain = 0
KSP2 022126Z 14015KT 37/15 A2997 RMK A01 T03710153  RH  028%=      5-min Rain = 0
KSP2 022127Z 15013KT 37/15 A2997 RMK A01 T03690151  RH  028%=      5-min Rain = 0
KSP2 022128Z 17016KT 37/15 A2997 RMK A01 T03660152  RH  028%=      5-min Rain = 0
KSP2 022129Z 16016G22KT 37/15 A2997 RMK A01 T03650153  RH  028%=      5-min Rain = 0
KSP2 022130Z 16013G18KT 37/15 A2997 RMK A01 T03660150  RH  028%=      5-min Rain = 0
KSP2 022131Z 16014G21KT 36/15 A2997 RMK A01 T03620150  RH  028%=      5-min Rain = 0
KSP2 022132Z 15013KT 36/15 A2997 RMK A01 T03550151  RH  030%=      5-min Rain = 0
KSP2 022133Z 14013KT 35/16 A2997 RMK A01 T03540155  RH  031%=      5-min Rain = 0
KSP2 022134Z 15016G21KT 36/16 A2997 RMK A01 T03570157  RH  030%=      5-min Rain = 0
KSP2 022135Z 15019KT 36/15 A2997 RMK A01 T03600154  RH  029%=      5-min Rain = 0
KSP2 022136Z 14017KT 36/15 A2997 RMK A01 T03600154  RH  029%=      5-min Rain = 0
KSP2 022137Z 14015KT 36/15 A2998 RMK A01 T03600154  RH  029%=      5-min Rain = 0
KSP2 022138Z 14010KT 36/15 A2998 RMK A01 T03610154  RH  029%=      5-min Rain = 0
KSP2 022139Z 16013KT 36/16 A2997 RMK A01 T03640157  RH  029%=      5-min Rain = 0
KSP2 022140Z 16016KT 37/16 A2998 RMK A01 T03670156  RH  029%=      5-min Rain = 0
KSP2 022141Z 15015KT 36/15 A2997 RMK A01 T03640150  RH  028%=      5-min Rain = 0
KSP2 022142Z 16015KT 36/15 A2998 RMK A01 T03610148  RH  028%=      5-min Rain = 0
KSP2 022143Z 16016KT 36/15 A2998 RMK A01 T03620146  RH  028%=      5-min Rain = 0
KSP2 022144Z 16014KT 36/15 A2998 RMK A01 T03630146  RH  027%=      5-min Rain = 0
KSP2 022145Z 16012KT 37/15 A2998 RMK A01 T03650146  RH  027%=      5-min Rain = 0
KSP2 022146Z 17011KT 36/15 A2998 RMK A01 T03620147  RH  028%=      5-min Rain = 0
KSP2 022147Z 18011KT 36/15 A2998 RMK A01 T03600149  RH  029%=      5-min Rain = 0
KSP2 022148Z 19012KT 36/15 A2998 RMK A01 T03610150  RH  029%=      5-min Rain = 0
KSP2 022149Z 19010KT 36/15 A2997 RMK A01 T03610151  RH  029%=      5-min Rain = 0
KSP2 022150Z 18016G23KT 36/16 A2997 RMK A01 T03630155  RH  029%=      5-min Rain = 0
KSP2 022151Z 17015G20KT 37/16 A2997 RMK A01 T03660155  RH  029%=      5-min Rain = 0
KSP2 022152Z 17012KT 36/16 A2997 RMK A01 T03630156  RH  029%=      5-min Rain = 0
KSP2 022153Z 17011KT 36/16 A2997 RMK A01 T03600158  RH  030%=      5-min Rain = 0
KSP2 022154Z 17009KT 36/16 A2997 RMK A01 T03600159  RH  030%=      5-min Rain = 0
KSP2 022155Z 16011KT 36/16 A2998 RMK A01 T03570159  RH  031%=      5-min Rain = 0
KSP2 022156Z 15015KT 36/16 A2998 RMK A01 T03550159  RH  031%=      5-min Rain = 0
KSP2 022157Z 14014KT 35/16 A2998 RMK A01 T03530158  RH  031%=      5-min Rain = 0
KSP2 022158Z 14014KT 35/16 A2998 RMK A01 T03500156  RH  031%=      5-min Rain = 0
KSP2 022159Z 14015KT 35/15 A2998 RMK A01 T03480152  RH  031%=      5-min Rain = 0
KSP2 022200Z 14015KT 35/15 A2998 RMK A01 T03460152  RH  031%=      5-min Rain = 0
KSP2 022201Z 15014KT 35/15 A2998 RMK A01 T03460154  RH  032%=      5-min Rain = 0
KSP2 022202Z 16012KT 35/16 A2998 RMK A01 T03490155  RH  031%=      5-min Rain = 0
KSP2 022203Z 15010KT 35/15 A2998 RMK A01 T03520153  RH  031%=      5-min Rain = 0
KSP2 022204Z 15012G17KT 35/15 A2998 RMK A01 T03540154  RH  030%=      5-min Rain = 0
KSP2 022205Z 14015KT 36/16 A2998 RMK A01 T03580155  RH  030%=      5-min Rain = 0
KSP2 022206Z 15014KT 36/15 A2997 RMK A01 T03590153  RH  029%=      5-min Rain = 0
KSP2 022207Z 15014G19KT 36/15 A2998 RMK A01 T03600152  RH  029%=      5-min Rain = 0
KSP2 022208Z 14013KT 36/15 A2997 RMK A01 T03600154  RH  029%=      5-min Rain = 0
KSP2 022209Z 15013KT 36/16 A2997 RMK A01 T03610155  RH  030%=      5-min Rain = 0
KSP2 022210Z 16015KT 37/16 A2997 RMK A01 T03650155  RH  029%=      5-min Rain = 0
KSP2 022211Z 15013KT 37/16 A2997 RMK A01 T03660155  RH  029%=      5-min Rain = 0
KSP2 022212Z 14016KT 37/15 A2997 RMK A01 T03670153  RH  028%=      5-min Rain = 0
KSP2 022213Z 14013KT 37/15 A2997 RMK A01 T03670153  RH  028%=      5-min Rain = 0
KSP2 022214Z 14011KT 37/15 A2997 RMK A01 T03660152  RH  028%=      5-min Rain = 0
KSP2 022215Z 15010KT 36/15 A2997 RMK A01 T03590151  RH  029%=      5-min Rain = 0
KSP2 022216Z 16013KT 36/15 A2998 RMK A01 T03550151  RH  030%=      5-min Rain = 0
KSP2 022217Z 16012KT 35/15 A2997 RMK A01 T03510149  RH  030%=      5-min Rain = 0
KSP2 022218Z 15014G19KT 35/15 A2997 RMK A01 T03490149  RH  030%=      5-min Rain = 0
KSP2 022219Z 15017KT 35/15 A2997 RMK A01 T03470150  RH  031%=      5-min Rain = 0
KSP2 022220Z 15016KT 35/15 A2998 RMK A01 T03450148  RH  031%=      5-min Rain = 0
KSP2 022221Z 15014KT 35/15 A2997 RMK A01 T03450148  RH  031%=      5-min Rain = 0
KSP2 022222Z 16015KT 35/15 A2997 RMK A01 T03450149  RH  031%=      5-min Rain = 0
KSP2 022223Z 16010KT 35/15 A2997 RMK A01 T03460148  RH  031%=      5-min Rain = 0
KSP2 022224Z 17009KT 35/15 A2997 RMK A01 T03470149  RH  031%=      5-min Rain = 0
KSP2 022225Z 16011KT 35/15 A2997 RMK A01 T03500151  RH  030%=      5-min Rain = 0
KSP2 022226Z 17010KT 35/15 A2997 RMK A01 T03540153  RH  030%=      5-min Rain = 0
KSP2 022227Z 17013KT 36/15 A2997 RMK A01 T03600153  RH  029%=      5-min Rain = 0
KSP2 022228Z 16011G16KT 36/15 A2997 RMK A01 T03610150  RH  028%=      5-min Rain = 0
KSP2 022229Z 17018KT 36/15 A2997 RMK A01 T03610151  RH  029%=      5-min Rain = 0
KSP2 022230Z 16017KT 36/15 A2997 RMK A01 T03620151  RH  029%=      5-min Rain = 0
KSP2 022231Z 15015KT 36/15 A2997 RMK A01 T03620151  RH  029%=      5-min Rain = 0
KSP2 022232Z 15015KT 36/15 A2997 RMK A01 T03610152  RH  029%=      5-min Rain = 0
KSP2 022233Z 14014KT 36/15 A2997 RMK A01 T03630152  RH  029%=      5-min Rain = 0
KSP2 022234Z 14012KT 36/15 A2997 RMK A01 T03620151  RH  029%=      5-min Rain = 0
KSP2 022235Z 14014KT 36/15 A2997 RMK A01 T03600152  RH  029%=      5-min Rain = 0
KSP2 022236Z 14016G22KT 36/15 A2997 RMK A01 T03610152  RH  029%=      5-min Rain = 0
KSP2 022237Z 15018KT 36/15 A2997 RMK A01 T03630152  RH  029%=      5-min Rain = 0
KSP2 022238Z 15017KT 36/15 A2997 RMK A01 T03630152  RH  028%=      5-min Rain = 0
KSP2 022239Z 15015KT 36/15 A2997 RMK A01 T03620148  RH  028%=      5-min Rain = 0
KSP2 022240Z 14013KT 36/15 A2997 RMK A01 T03580148  RH  029%=      5-min Rain = 0
KSP2 022241Z 15015G20KT 36/15 A2997 RMK A01 T03580148  RH  029%=      5-min Rain = 0
KSP2 022242Z 15013KT 36/15 A2997 RMK A01 T03580147  RH  028%=      5-min Rain = 0
KSP2 022243Z 16015KT 36/15 A2997 RMK A01 T03580147  RH  028%=      5-min Rain = 0
KSP2 022244Z 16014KT 36/14 A2997 RMK A01 T03590144  RH  028%=      5-min Rain = 0
KSP2 022245Z 16013KT 36/14 A2997 RMK A01 T03600143  RH  027%=      5-min Rain = 0
KSP2 022246Z 16010KT 36/14 A2997 RMK A01 T03570143  RH  028%=      5-min Rain = 0
KSP2 022247Z 16010KT 36/15 A2997 RMK A01 T03560145  RH  028%=      5-min Rain = 0
KSP2 022248Z 16014KT 36/14 A2997 RMK A01 T03580144  RH  028%=      5-min Rain = 0
KSP2 022249Z 16013KT 36/15 A2997 RMK A01 T03580146  RH  028%=      5-min Rain = 0
KSP2 022250Z 16013KT 36/15 A2997 RMK A01 T03600149  RH  028%=      5-min Rain = 0
KSP2 022251Z 14015KT 36/15 A2997 RMK A01 T03610150  RH  029%=      5-min Rain = 0
KSP2 022252Z 14019KT 36/15 A2997 RMK A01 T03600149  RH  029%=      5-min Rain = 0
KSP2 022253Z 14019KT 36/15 A2997 RMK A01 T03600148  RH  028%=      5-min Rain = 0
KSP2 022254Z 13017KT 36/15 A2997 RMK A01 T03600146  RH  028%=      5-min Rain = 0
KSP2 022255Z 14019KT 36/15 A2997 RMK A01 T03590145  RH  028%=      5-min Rain = 0
KSP2 022256Z 16017KT 36/15 A2997 RMK A01 T03590146  RH  028%=      5-min Rain = 0
KSP2 022257Z 16015KT 36/15 A2997 RMK A01 T03580147  RH  028%=      5-min Rain = 0
KSP2 022258Z 16015KT 35/15 A2997 RMK A01 T03540147  RH  029%=      5-min Rain = 0
KSP2 022259Z 16014KT 35/15 A2997 RMK A01 T03490149  RH  030%=      5-min Rain = 0
KSP2 022300Z 16013KT 35/15 A2997 RMK A01 T03480150  RH  031%=      5-min Rain = 0
KSP2 022301Z 16011KT 35/15 A2996 RMK A01 T03480149  RH  030%=      5-min Rain = 0
KSP2 022302Z 16013KT 35/15 A2996 RMK A01 T03480148  RH  030%=      5-min Rain = 0
KSP2 022303Z 17014G19KT 35/15 A2996 RMK A01 T03500150  RH  030%=      5-min Rain = 0
KSP2 022304Z 14017G25KT 36/15 A2996 RMK A01 T03550149  RH  029%=      5-min Rain = 0
KSP2 022305Z 14017G22KT 36/15 A2996 RMK A01 T03570147  RH  029%=      5-min Rain = 0
KSP2 022306Z 15019KT 36/15 A2996 RMK A01 T03580148  RH  028%=      5-min Rain = 0
KSP2 022307Z 14016KT 36/15 A2996 RMK A01 T03590146  RH  028%=      5-min Rain = 0
KSP2 022308Z 14016KT 36/15 A2996 RMK A01 T03570145  RH  028%=      5-min Rain = 0
KSP2 022309Z 15014KT 36/14 A2996 RMK A01 T03570144  RH  028%=      5-min Rain = 0
KSP2 022310Z 14015KT 36/14 A2996 RMK A01 T03560142  RH  028%=      5-min Rain = 0
KSP2 022311Z 15015KT 35/14 A2996 RMK A01 T03510142  RH  029%=      5-min Rain = 0
KSP2 022312Z 16014KT 35/14 A2996 RMK A01 T03480142  RH  029%=      5-min Rain = 0
KSP2 022313Z 16016KT 35/14 A2996 RMK A01 T03490143  RH  029%=      5-min Rain = 0
KSP2 022314Z 17015KT 35/14 A2996 RMK A01 T03520141  RH  028%=      5-min Rain = 0
KSP2 022315Z 16014KT 35/14 A2996 RMK A01 T03530141  RH  028%=      5-min Rain = 0
KSP2 022316Z 16014KT 35/14 A2996 RMK A01 T03530142  RH  028%=      5-min Rain = 0
KSP2 022317Z 16016KT 35/14 A2996 RMK A01 T03540144  RH  029%=      5-min Rain = 0
KSP2 022318Z 16012KT 35/15 A2996 RMK A01 T03530145  RH  029%=      5-min Rain = 0
KSP2 022319Z 16014KT 35/15 A2996 RMK A01 T03520145  RH  029%=      5-min Rain = 0
KSP2 022320Z 16016KT 35/14 A2996 RMK A01 T03510144  RH  029%=      5-min Rain = 0
KSP2 022321Z 16015KT 35/14 A2996 RMK A01 T03470143  RH  030%=      5-min Rain = 0
KSP2 022322Z 16016KT 34/15 A2996 RMK A01 T03430145  RH  030%=      5-min Rain = 0
KSP2 022323Z 15014KT 34/15 A2996 RMK A01 T03410147  RH  031%=      5-min Rain = 0
KSP2 022324Z 15017KT 34/15 A2996 RMK A01 T03400147  RH  031%=      5-min Rain = 0
KSP2 022325Z 16012KT 34/15 A2996 RMK A01 T03400146  RH  031%=      5-min Rain = 0
KSP2 022326Z 16015KT 34/15 A2996 RMK A01 T03420147  RH  031%=      5-min Rain = 0
KSP2 022327Z 16012KT 34/15 A2996 RMK A01 T03430145  RH  031%=      5-min Rain = 0
KSP2 022328Z 15011KT 34/15 A2996 RMK A01 T03430146  RH  031%=      5-min Rain = 0
KSP2 022329Z 16012KT 34/15 A2996 RMK A01 T03430148  RH  031%=      5-min Rain = 0
KSP2 022330Z 15014G19KT 35/15 A2996 RMK A01 T03450149  RH  031%=      5-min Rain = 0
KSP2 022331Z 16013KT 35/15 A2996 RMK A01 T03480149  RH  030%=      5-min Rain = 0
KSP2 022332Z 15013KT 35/15 A2996 RMK A01 T03520151  RH  030%=      5-min Rain = 0
KSP2 022333Z 15014KT 35/15 A2996 RMK A01 T03540151  RH  030%=      5-min Rain = 0
KSP2 022334Z 14013KT 35/15 A2996 RMK A01 T03530152  RH  030%=      5-min Rain = 0
KSP2 022335Z 15016G21KT 35/15 A2996 RMK A01 T03530153  RH  030%=      5-min Rain = 0
KSP2 022336Z 15017KT 35/15 A2996 RMK A01 T03520152  RH  030%=      5-min Rain = 0
KSP2 022337Z 15016KT 35/15 A2996 RMK A01 T03490151  RH  031%=      5-min Rain = 0
KSP2 022338Z 14014KT 35/15 A2996 RMK A01 T03480153  RH  031%=      5-min Rain = 0
KSP2 022339Z 14013KT 35/15 A2996 RMK A01 T03480154  RH  031%=      5-min Rain = 0
KSP2 022340Z 15015KT 35/16 A2996 RMK A01 T03470155  RH  032%=      5-min Rain = 0
KSP2 022341Z 15013KT 35/16 A2996 RMK A01 T03460155  RH  032%=      5-min Rain = 0
KSP2 022342Z 15013KT 35/16 A2996 RMK A01 T03460157  RH  032%=      5-min Rain = 0
KSP2 022343Z 15015KT 35/16 A2996 RMK A01 T03470156  RH  032%=      5-min Rain = 0
KSP2 022344Z 14015G23KT 34/16 A2996 RMK A01 T03440156  RH  033%=      5-min Rain = 0
KSP2 022345Z 16017KT 34/16 A2996 RMK A01 T03430155  RH  033%=      5-min Rain = 0
KSP2 022346Z 16015KT 34/15 A2996 RMK A01 T03420152  RH  032%=      5-min Rain = 0
KSP2 022347Z 15015KT 34/16 A2996 RMK A01 T03410158  RH  034%=      5-min Rain = 0
KSP2 022348Z 15016KT 34/16 A2996 RMK A01 T03400159  RH  034%=      5-min Rain = 0
KSP2 022349Z 15015KT 34/16 A2996 RMK A01 T03390159  RH  034%=      5-min Rain = 0
KSP2 022350Z 15012KT 34/16 A2996 RMK A01 T03370161  RH  035%=      5-min Rain = 0
KSP2 022351Z 15013KT 34/16 A2996 RMK A01 T03370162  RH  035%=      5-min Rain = 0
KSP2 022352Z 15014KT 34/16 A2996 RMK A01 T03350162  RH  035%=      5-min Rain = 0
KSP2 022353Z 14015KT 33/16 A2996 RMK A01 T03340161  RH  036%=      5-min Rain = 0
KSP2 022354Z 13017G22KT 33/16 A2996 RMK A01 T03340162  RH  036%=      5-min Rain = 0
KSP2 022355Z 13020KT 33/16 A2996 RMK A01 T03330163  RH  036%=      5-min Rain = 0
KSP2 022356Z 13016KT 33/16 A2996 RMK A01 T03320164  RH  037%=      5-min Rain = 0
KSP2 022357Z 14015G20KT 33/16 A2996 RMK A01 T03310164  RH  037%=      5-min Rain = 0
KSP2 022358Z 14018G23KT 33/16 A2996 RMK A01 T03300163  RH  037%=      5-min Rain = 0
KSP2 022359Z 14021KT 33/17 A2996 RMK A01 T03300166  RH  037%=      5-min Rain = 0
KSP2 030000Z 15018KT 33/17 A2996 RMK A01 T03300166  RH  038%=      5-min Rain = 0
KSP2 030001Z 16015KT 33/17 A2997 RMK A01 T03290167  RH  038%=      5-min Rain = 0
KSP2 030002Z 15016KT 33/17 A2997 RMK A01 T03280167  RH  038%=      5-min Rain = 0
KSP2 030003Z 15015KT 33/17 A2997 RMK A01 T03280167  RH  038%=      5-min Rain = 0
KSP2 030004Z 14013KT 33/17 A2997 RMK A01 T03280166  RH  038%=      5-min Rain = 0
KSP2 030005Z 14014KT 33/17 A2997 RMK A01 T03280165  RH  038%=      5-min Rain = 0
KSP2 030006Z 15017KT 33/17 A2997 RMK A01 T03280165  RH  038%=      5-min Rain = 0
KSP2 030007Z 16017G22KT 33/17 A2997 RMK A01 T03280166  RH  038%=      5-min Rain = 0
KSP2 030008Z 15017KT 33/17 A2997 RMK A01 T03280166  RH  038%=      5-min Rain = 0
KSP2 030009Z 15014KT 33/17 A2997 RMK A01 T03270168  RH  039%=      5-min Rain = 0
KSP2 030010Z 14015G21KT 33/17 A2997 RMK A01 T03270168  RH  039%=      5-min Rain = 0
KSP2 030011Z 15019KT 33/17 A2997 RMK A01 T03270167  RH  039%=      5-min Rain = 0
KSP2 030012Z 15013KT 33/17 A2998 RMK A01 T03270167  RH  039%=      5-min Rain = 0
KSP2 030013Z 15015KT 33/17 A2998 RMK A01 T03270168  RH  039%=      5-min Rain = 0
KSP2 030014Z 15013KT 33/17 A2998 RMK A01 T03270168  RH  039%=      5-min Rain = 0
KSP2 030015Z 15017KT 33/17 A2998 RMK A01 T03270168  RH  039%=      5-min Rain = 0
KSP2 030016Z 15014KT 33/17 A2998 RMK A01 T03260167  RH  039%=      5-min Rain = 0
KSP2 030017Z 15014KT 33/17 A2998 RMK A01 T03260167  RH  039%=      5-min Rain = 0
KSP2 030018Z 15014KT 33/17 A2998 RMK A01 T03270168  RH  039%=      5-min Rain = 0
KSP2 030019Z 14013KT 33/17 A2998 RMK A01 T03270167  RH  038%=      5-min Rain = 0
KSP2 030020Z 15017KT 33/17 A2998 RMK A01 T03290167  RH  038%=      5-min Rain = 0
KSP2 030021Z 15019KT 33/17 A2998 RMK A01 T03310167  RH  038%=      5-min Rain = 0
KSP2 030022Z 15017KT 33/17 A2998 RMK A01 T03310169  RH  038%=      5-min Rain = 0
KSP2 030023Z 15018KT 33/17 A2998 RMK A01 T03290169  RH  038%=      5-min Rain = 0
KSP2 030024Z 15017G22KT 33/17 A2998 RMK A01 T03280169  RH  039%=      5-min Rain = 0
KSP2 030025Z 15017KT 33/17 A2998 RMK A01 T03260169  RH  039%=      5-min Rain = 0
KSP2 030026Z 16016KT 33/17 A2998 RMK A01 T03250169  RH  039%=      5-min Rain = 0
KSP2 030027Z 15017KT 33/17 A2998 RMK A01 T03250169  RH  039%=      5-min Rain = 0
KSP2 030028Z 16017KT 32/17 A2998 RMK A01 T03240169  RH  040%=      5-min Rain = 0
KSP2 030029Z 16014KT 32/17 A2998 RMK A01 T03240170  RH  040%=      5-min Rain = 0
KSP2 030030Z 15012KT 32/17 A2998 RMK A01 T03240170  RH  040%=      5-min Rain = 0
KSP2 030031Z 16016KT 32/17 A2998 RMK A01 T03240170  RH  040%=      5-min Rain = 0
KSP2 030032Z 16016KT 32/17 A2998 RMK A01 T03230169  RH  040%=      5-min Rain = 0
KSP2 030033Z 15016KT 32/17 A2998 RMK A01 T03220168  RH  040%=      5-min Rain = 0
KSP2 030034Z 16016KT 32/17 A2998 RMK A01 T03220168  RH  040%=      5-min Rain = 0
KSP2 030035Z 16013KT 32/17 A2998 RMK A01 T03220167  RH  040%=      5-min Rain = 0
KSP2 030036Z 15014KT 32/17 A2999 RMK A01 T03210167  RH  040%=      5-min Rain = 0
KSP2 030037Z 15013KT 32/17 A2999 RMK A01 T03210167  RH  040%=      5-min Rain = 0
KSP2 030038Z 15013KT 32/17 A2999 RMK A01 T03210167  RH  040%=      5-min Rain = 0
KSP2 030039Z 15015KT 32/17 A2999 RMK A01 T03210167  RH  040%=      5-min Rain = 0
KSP2 030040Z 16016KT 32/17 A2999 RMK A01 T03200166  RH  040%=      5-min Rain = 0
KSP2 030041Z 16014KT 32/17 A2999 RMK A01 T03200165  RH  040%=      5-min Rain = 0
KSP2 030042Z 16013KT 32/17 A2999 RMK A01 T03200165  RH  040%=      5-min Rain = 0
KSP2 030043Z 15014KT 32/17 A2999 RMK A01 T03190165  RH  040%=      5-min Rain = 0
KSP2 030044Z 15016KT 32/17 A2998 RMK A01 T03190165  RH  040%=      5-min Rain = 0
KSP2 030045Z 15016KT 32/17 A2998 RMK A01 T03190165  RH  040%=      5-min Rain = 0
KSP2 030046Z 14016KT 32/17 A2998 RMK A01 T03180165  RH  040%=      5-min Rain = 0
KSP2 030047Z 15016KT 32/17 A2998 RMK A01 T03180165  RH  040%=      5-min Rain = 0
KSP2 030048Z 15015KT 32/17 A2998 RMK A01 T03180165  RH  040%=      5-min Rain = 0
KSP2 030049Z 15015KT 32/17 A2998 RMK A01 T03170165  RH  040%=      5-min Rain = 0
KSP2 030050Z 15013KT 32/16 A2998 RMK A01 T03170164  RH  040%=      5-min Rain = 0
KSP2 030051Z 16014KT 32/17 A2998 RMK A01 T03170165  RH  040%=      5-min Rain = 0
KSP2 030052Z 15015KT 32/16 A2998 RMK A01 T03160164  RH  040%=      5-min Rain = 0
KSP2 030053Z 15012KT 32/16 A2998 RMK A01 T03160164  RH  040%=      5-min Rain = 0
KSP2 030054Z 15011KT 32/17 A2998 RMK A01 T03160165  RH  040%=      5-min Rain = 0
KSP2 030055Z 15012KT 32/16 A2998 RMK A01 T03160164  RH  040%=      5-min Rain = 0
KSP2 030056Z 14013KT 32/17 A2998 RMK A01 T03150165  RH  040%=      5-min Rain = 0
KSP2 030057Z 14015KT 32/17 A2998 RMK A01 T03150165  RH  040%=      5-min Rain = 0
KSP2 030058Z 15013KT 32/17 A2998 RMK A01 T03150165  RH  041%=      5-min Rain = 0
KSP2 030059Z 14013KT 32/17 A2998 RMK A01 T03150166  RH  041%=      5-min Rain = 0
KSP2 030100Z 15012KT 31/17 A2998 RMK A01 T03140166  RH  041%=      5-min Rain = 0
KSP2 030101Z 14013KT 31/17 A2998 RMK A01 T03140166  RH  041%=      5-min Rain = 0
KSP2 030102Z 14013KT 31/17 A2998 RMK A01 T03140166  RH  041%=      5-min Rain = 0
KSP2 030103Z 15012KT 31/17 A2999 RMK A01 T03140167  RH  041%=      5-min Rain = 0
KSP2 030104Z 15013KT 31/17 A2999 RMK A01 T03130167  RH  041%=      5-min Rain = 0
KSP2 030105Z 15011KT 31/17 A2999 RMK A01 T03130167  RH  041%=      5-min Rain = 0
KSP2 030106Z 15011KT 31/17 A2999 RMK A01 T03130167  RH  042%=      5-min Rain = 0
KSP2 030107Z 15011G16KT 31/17 A2999 RMK A01 T03120167  RH  042%=      5-min Rain = 0
KSP2 030108Z 15017KT 31/17 A2999 RMK A01 T03120166  RH  041%=      5-min Rain = 0
KSP2 030109Z 15014KT 31/17 A2999 RMK A01 T03110165  RH  041%=      5-min Rain = 0
KSP2 030110Z 15011KT 31/17 A30 RMK A01 T03110165  RH  041%=      5-min Rain = 0
KSP2 030111Z 15009KT 31/17 A30 RMK A01 T03110165  RH  042%=      5-min Rain = 0
KSP2 030112Z 15011KT 31/17 A30 RMK A01 T03100165  RH  042%=      5-min Rain = 0
KSP2 030113Z 14010G15KT 31/17 A30 RMK A01 T03100165  RH  042%=      5-min Rain = 0
KSP2 030114Z 15011KT 31/16 A30 RMK A01 T03100164  RH  042%=      5-min Rain = 0
KSP2 030115Z 15012KT 31/16 A30 RMK A01 T03100164  RH  041%=      5-min Rain = 0
KSP2 030116Z 14013KT 31/16 A30 RMK A01 T03100163  RH  041%=      5-min Rain = 0
KSP2 030117Z 14015KT 31/16 A30 RMK A01 T03100163  RH  041%=      5-min Rain = 0
KSP2 030118Z 15011KT 31/16 A30 RMK A01 T03100162  RH  041%=      5-min Rain = 0
KSP2 030119Z 15011KT 31/16 A30 RMK A01 T03100162  RH  041%=      5-min Rain = 0
KSP2 030120Z 15014KT 31/16 A30 RMK A01 T03100162  RH  041%=      5-min Rain = 0
KSP2 030121Z 15012KT 31/16 A30 RMK A01 T03100162  RH  041%=      5-min Rain = 0
KSP2 030122Z 15011KT 31/16 A30 RMK A01 T03090162  RH  041%=      5-min Rain = 0
KSP2 030123Z 15011KT 31/16 A30 RMK A01 T03090162  RH  041%=      5-min Rain = 0
KSP2 030124Z 15012KT 31/16 A30 RMK A01 T03090162  RH  041%=      5-min Rain = 0
KSP2 030125Z 15010KT 31/16 A30 RMK A01 T03080162  RH  041%=      5-min Rain = 0
KSP2 030126Z 15010KT 31/16 A30 RMK A01 T03080162  RH  041%=      5-min Rain = 0
KSP2 030127Z 15012KT 31/16 A30 RMK A01 T03070163  RH  042%=      5-min Rain = 0
KSP2 030128Z 15010KT 31/16 A30 RMK A01 T03070163  RH  042%=      5-min Rain = 0
KSP2 030129Z 15012KT 31/16 A30 RMK A01 T03070163  RH  042%=      5-min Rain = 0
KSP2 030130Z 15013KT 31/16 A30 RMK A01 T03070164  RH  042%=      5-min Rain = 0
KSP2 030131Z 15011KT 31/16 A30 RMK A01 T03070164  RH  042%=      5-min Rain = 0
KSP2 030132Z 15011KT 31/16 A30 RMK A01 T03070164  RH  042%=      5-min Rain = 0
KSP2 030133Z 15012KT 31/17 A30 RMK A01 T03060165  RH  043%=      5-min Rain = 0
KSP2 030134Z 15010KT 31/17 A30 RMK A01 T03060165  RH  043%=      5-min Rain = 0
KSP2 030135Z 15011KT 31/17 A30 RMK A01 T03060165  RH  043%=      5-min Rain = 0
KSP2 030136Z 15012KT 31/17 A30 RMK A01 T03060165  RH  043%=      5-min Rain = 0
KSP2 030137Z 15011KT 31/17 A30 RMK A01 T03050165  RH  043%=      5-min Rain = 0
KSP2 030138Z 15011KT 31/17 A3001 RMK A01 T03050165  RH  043%=      5-min Rain = 0
KSP2 030139Z 15008KT 31/17 A3001 RMK A01 T03050166  RH  043%=      5-min Rain = 0
KSP2 030140Z 15009KT 31/17 A3001 RMK A01 T03050166  RH  043%=      5-min Rain = 0
KSP2 030141Z 15010KT 30/17 A3001 RMK A01 T03040166  RH  043%=      5-min Rain = 0
KSP2 030142Z 15010KT 30/17 A3001 RMK A01 T03030165  RH  043%=      5-min Rain = 0
KSP2 030143Z 15008KT 30/17 A3001 RMK A01 T03030165  RH  043%=      5-min Rain = 0
KSP2 030144Z 15010KT 30/17 A3001 RMK A01 T03030166  RH  044%=      5-min Rain = 0
KSP2 030145Z 15010KT 30/17 A3001 RMK A01 T03040166  RH  044%=      5-min Rain = 0
KSP2 030146Z 15010KT 30/17 A3002 RMK A01 T03030167  RH  044%=      5-min Rain = 0
KSP2 030147Z 15009KT 30/17 A3002 RMK A01 T03030167  RH  044%=      5-min Rain = 0
KSP2 030148Z 15009KT 30/17 A3002 RMK A01 T03030167  RH  044%=      5-min Rain = 0
KSP2 030149Z 15010KT 30/17 A3002 RMK A01 T03030168  RH  044%=      5-min Rain = 0
KSP2 030150Z 14009KT 30/17 A3002 RMK A01 T03030168  RH  044%=      5-min Rain = 0
KSP2 030151Z 15011KT 30/17 A3002 RMK A01 T03030168  RH  044%=      5-min Rain = 0
KSP2 030152Z 15010KT 30/17 A3002 RMK A01 T03030168  RH  044%=      5-min Rain = 0
KSP2 030153Z 14009KT 30/17 A3002 RMK A01 T03030169  RH  044%=      5-min Rain = 0
KSP2 030154Z 14009KT 30/17 A3002 RMK A01 T03030169  RH  045%=      5-min Rain = 0
KSP2 030155Z 14009KT 30/17 A3002 RMK A01 T03030169  RH  045%=      5-min Rain = 0
KSP2 030156Z 15008KT 30/17 A3002 RMK A01 T03020169  RH  045%=      5-min Rain = 0
KSP2 030157Z 14008KT 30/17 A3002 RMK A01 T03020169  RH  045%=      5-min Rain = 0
KSP2 030158Z 14009KT 30/17 A3002 RMK A01 T03020169  RH  045%=      5-min Rain = 0
KSP2 030159Z 14007KT 30/17 A3002 RMK A01 T03020170  RH  045%=      5-min Rain = 0
KSP2 030200Z 14008KT 30/17 A3003 RMK A01 T03020170  RH  045%=      5-min Rain = 0
KSP2 030201Z 14007KT 30/17 A3003 RMK A01 T03010170  RH  045%=      5-min Rain = 0
KSP2 030202Z 14007KT 30/17 A3003 RMK A01 T03020170  RH  045%=      5-min Rain = 0
KSP2 030203Z 14007KT 30/17 A3003 RMK A01 T03010170  RH  045%=      5-min Rain = 0
KSP2 030204Z 14008KT 30/17 A3003 RMK A01 T03010170  RH  045%=      5-min Rain = 0
KSP2 030205Z 14006KT 30/17 A3003 RMK A01 T03010170  RH  045%=      5-min Rain = 0
KSP2 030206Z 13005KT 30/17 A3003 RMK A01 T03010170  RH  045%=      5-min Rain = 0
KSP2 030207Z 13005KT 30/17 A3003 RMK A01 T03000169  RH  045%=      5-min Rain = 0
KSP2 030208Z 13006KT 30/17 A3003 RMK A01 T03000169  RH  045%=      5-min Rain = 0
KSP2 030209Z 13007KT 30/17 A3003 RMK A01 T02990169  RH  046%=      5-min Rain = 0
KSP2 030210Z 12007KT 30/17 A3003 RMK A01 T02990169  RH  046%=      5-min Rain = 0
KSP2 030211Z 12006KT 30/17 A3003 RMK A01 T02990169  RH  046%=      5-min Rain = 0
KSP2 030212Z 13006KT 30/17 A3003 RMK A01 T02990169  RH  046%=      5-min Rain = 0
KSP2 030213Z 12007KT 30/17 A3004 RMK A01 T02990169  RH  046%=      5-min Rain = 0
KSP2 030214Z 13007KT 30/17 A3004 RMK A01 T02990170  RH  046%=      5-min Rain = 0
KSP2 030215Z 12007KT 30/17 A3004 RMK A01 T02990170  RH  046%=      5-min Rain = 0
KSP2 030216Z 12007KT 30/17 A3004 RMK A01 T02980170  RH  046%=      5-min Rain = 0
KSP2 030217Z 12006KT 30/17 A3004 RMK A01 T02990171  RH  046%=      5-min Rain = 0
KSP2 030218Z 11006KT 30/17 A3004 RMK A01 T02980171  RH  046%=      5-min Rain = 0
KSP2 030219Z 11005KT 30/17 A3004 RMK A01 T02980171  RH  046%=      5-min Rain = 0
KSP2 030220Z 10006KT 30/17 A3004 RMK A01 T02970172  RH  047%=      5-min Rain = 0
KSP2 030221Z 09005KT 30/17 A3005 RMK A01 T02970172  RH  047%=      5-min Rain = 0
KSP2 030222Z 08005KT 30/17 A3005 RMK A01 T02970172  RH  047%=      5-min Rain = 0
KSP2 030223Z 08006KT 30/17 A3005 RMK A01 T02960172  RH  047%=      5-min Rain = 0
KSP2 030224Z 07005KT 30/17 A3005 RMK A01 T02960173  RH  047%=      5-min Rain = 0
KSP2 030225Z 05005KT 30/17 A3006 RMK A01 T02960172  RH  047%=      5-min Rain = 0
KSP2 030226Z 04004KT 30/17 A3006 RMK A01 T02960172  RH  047%=      5-min Rain = 0
KSP2 030227Z 04005KT 30/17 A3006 RMK A01 T02960171  RH  047%=      5-min Rain = 0
KSP2 030228Z 05006KT 30/17 A3006 RMK A01 T02960171  RH  047%=      5-min Rain = 0
KSP2 030229Z 03013KT 30/17 A3006 RMK A01 T02950171  RH  047%=      5-min Rain = 0
KSP2 030230Z 02010KT 29/17 A3006 RMK A01 T02860169  RH  049%=      5-min Rain = 0
KSP2 030231Z 02011KT 28/17 A3006 RMK A01 T02770168  RH  051%=      5-min Rain = 0
KSP2 030232Z 02011KT 27/17 A3006 RMK A01 T02720168  RH  053%=      5-min Rain = 0
KSP2 030233Z 01010KT 27/17 A3006 RMK A01 T02690168  RH  054%=      5-min Rain = 0
KSP2 030234Z 01010KT 27/17 A3006 RMK A01 T02660168  RH  055%=      5-min Rain = 0
KSP2 030235Z 01011KT 27/17 A3006 RMK A01 T02650168  RH  056%=      5-min Rain = 0
KSP2 030236Z 02010KT 26/17 A3006 RMK A01 T02630169  RH  056%=      5-min Rain = 0
KSP2 030237Z 02012KT 26/17 A3006 RMK A01 T02630169  RH  056%=      5-min Rain = 0
KSP2 030238Z 01010KT 26/17 A3007 RMK A01 T02620169  RH  056%=      5-min Rain = 0
KSP2 030239Z 01010KT 26/17 A3007 RMK A01 T02620169  RH  056%=      5-min Rain = 0
KSP2 030240Z 01008KT 26/17 A3007 RMK A01 T02620168  RH  056%=      5-min Rain = 0
KSP2 030241Z 02008KT 26/17 A3007 RMK A01 T02620168  RH  056%=      5-min Rain = 0
KSP2 030242Z 02007KT 26/17 A3007 RMK A01 T02620168  RH  056%=      5-min Rain = 0
KSP2 030243Z 03006KT 26/17 A3007 RMK A01 T02620167  RH  056%=      5-min Rain = 0
KSP2 030244Z 02008KT 26/17 A3007 RMK A01 T02630167  RH  056%=      5-min Rain = 0
KSP2 030245Z 01009KT 26/17 A3007 RMK A01 T02640168  RH  056%=      5-min Rain = 0
KSP2 030246Z 01010KT 26/17 A3007 RMK A01 T02630168  RH  056%=      5-min Rain = 0
KSP2 030247Z 00010KT 26/17 A3007 RMK A01 T02630169  RH  056%=      5-min Rain = 0
KSP2 030248Z 00010KT 26/17 A3007 RMK A01 T02620169  RH  056%=      5-min Rain = 0
KSP2 030249Z 36011KT 26/17 A3007 RMK A01 T02610169  RH  057%=      5-min Rain = 0
KSP2 030250Z 35010KT 26/17 A3007 RMK A01 T02600170  RH  057%=      5-min Rain = 0
KSP2 030251Z 35010KT 26/17 A3007 RMK A01 T02580170  RH  058%=      5-min Rain = 0
KSP2 030252Z 35011KT 26/17 A3007 RMK A01 T02560171  RH  059%=      5-min Rain = 0
KSP2 030253Z 36012KT 25/17 A3007 RMK A01 T02540170  RH  060%=      5-min Rain = 0
KSP2 030254Z 36011KT 25/17 A3007 RMK A01 T02530171  RH  060%=      5-min Rain = 0
KSP2 030255Z 00012KT 25/17 A3007 RMK A01 T02510172  RH  061%=      5-min Rain = 0
KSP2 030256Z 01010KT 25/17 A3007 RMK A01 T02500172  RH  062%=      5-min Rain = 0
KSP2 030257Z 01011KT 25/17 A3006 RMK A01 T02490171  RH  062%=      5-min Rain = 0
KSP2 030258Z 02009KT 25/17 A3006 RMK A01 T02490171  RH  062%=      5-min Rain = 0
KSP2 030259Z 02009KT 25/17 A3006 RMK A01 T02490171  RH  062%=      5-min Rain = 0
KSP2 030300Z 02010KT 25/17 A3006 RMK A01 T02490171  RH  062%=      5-min Rain = 0
KSP2 030301Z 02008KT 25/17 A3006 RMK A01 T02490172  RH  062%=      5-min Rain = 0
KSP2 030302Z 03008KT 25/17 A3006 RMK A01 T02490172  RH  062%=      5-min Rain = 0
KSP2 030303Z 02008KT 25/17 A3006 RMK A01 T02490171  RH  062%=      5-min Rain = 0
KSP2 030304Z 03008KT 25/17 A3006 RMK A01 T02490171  RH  062%=      5-min Rain = 0
KSP2 030305Z 03008KT 25/17 A3007 RMK A01 T02490171  RH  062%=      5-min Rain = 0
KSP2 030306Z 03008KT 25/17 A3007 RMK A01 T02490171  RH  062%=      5-min Rain = 0
KSP2 030307Z 03009KT 25/17 A3007 RMK A01 T02490170  RH  062%=      5-min Rain = 0
KSP2 030308Z 02008KT 25/17 A3007 RMK A01 T02490170  RH  061%=      5-min Rain = 0
KSP2 030309Z 02009KT 25/17 A3007 RMK A01 T02500170  RH  061%=      5-min Rain = 0
KSP2 030310Z 02009KT 25/17 A3007 RMK A01 T02500170  RH  061%=      5-min Rain = 0
KSP2 030311Z 02008KT 25/17 A3007 RMK A01 T02500170  RH  061%=      5-min Rain = 0
KSP2 030312Z 02008KT 25/17 A3007 RMK A01 T02500170  RH  061%=      5-min Rain = 0
KSP2 030313Z 02010KT 25/17 A3007 RMK A01 T02500170  RH  061%=      5-min Rain = 0
KSP2 030314Z 01008KT 25/17 A3007 RMK A01 T02500170  RH  061%=      5-min Rain = 0
KSP2 030315Z 01010KT 25/17 A3008 RMK A01 T02500170  RH  061%=      5-min Rain = 0
KSP2 030316Z 01009KT 25/17 A3008 RMK A01 T02500170  RH  061%=      5-min Rain = 0
KSP2 030317Z 01011KT 25/17 A3008 RMK A01 T02500170  RH  061%=      5-min Rain = 0
KSP2 030318Z 00012KT 25/17 A3008 RMK A01 T02500170  RH  061%=      5-min Rain = 0
KSP2 030319Z 00011KT 25/17 A3008 RMK A01 T02490170  RH  061%=      5-min Rain = 0
KSP2 030320Z 36010KT 25/17 A3008 RMK A01 T02480169  RH  061%=      5-min Rain = 0
KSP2 030321Z 00009KT 25/17 A3008 RMK A01 T02480169  RH  062%=      5-min Rain = 0
KSP2 030322Z 36009KT 25/17 A3008 RMK A01 T02470169  RH  062%=      5-min Rain = 0
KSP2 030323Z 01009KT 25/17 A3008 RMK A01 T02460169  RH  062%=      5-min Rain = 0
KSP2 030324Z 01010KT 25/17 A3008 RMK A01 T02460169  RH  062%=      5-min Rain = 0
KSP2 030325Z 01009KT 25/17 A3008 RMK A01 T02450169  RH  062%=      5-min Rain = 0
KSP2 030326Z 02008KT 25/17 A3008 RMK A01 T02450169  RH  062%=      5-min Rain = 0
KSP2 030327Z 02006KT 25/17 A3008 RMK A01 T02450168  RH  063%=      5-min Rain = 0
KSP2 030328Z 02006KT 24/17 A3008 RMK A01 T02440168  RH  063%=      5-min Rain = 0
KSP2 030329Z 03007KT 24/17 A3008 RMK A01 T02440168  RH  063%=      5-min Rain = 0
KSP2 030330Z 03007KT 24/17 A3008 RMK A01 T02440168  RH  063%=      5-min Rain = 0
KSP2 030331Z 03007KT 24/17 A3008 RMK A01 T02440169  RH  063%=      5-min Rain = 0
KSP2 030332Z 03007KT 24/17 A3008 RMK A01 T02440169  RH  063%=      5-min Rain = 0
KSP2 030333Z 03007KT 24/17 A3008 RMK A01 T02440169  RH  063%=      5-min Rain = 0
KSP2 030334Z 04006KT 24/17 A3008 RMK A01 T02440168  RH  063%=      5-min Rain = 0
KSP2 030335Z 05006KT 24/17 A3009 RMK A01 T02440168  RH  063%=      5-min Rain = 0
KSP2 030336Z 06005KT 24/17 A3009 RMK A01 T02440168  RH  062%=      5-min Rain = 0
KSP2 030337Z 07007KT 24/17 A3009 RMK A01 T02440168  RH  062%=      5-min Rain = 0
KSP2 030338Z 07006KT 24/17 A3009 RMK A01 T02440168  RH  062%=      5-min Rain = 0
KSP2 030339Z 08007KT 24/17 A3009 RMK A01 T02440168  RH  063%=      5-min Rain = 0
KSP2 030340Z 09006KT 24/17 A3009 RMK A01 T02440168  RH  063%=      5-min Rain = 0
KSP2 030341Z 08006KT 24/17 A3009 RMK A01 T02440168  RH  063%=      5-min Rain = 0
KSP2 030342Z 09006KT 24/17 A3009 RMK A01 T02430168  RH  063%=      5-min Rain = 0
KSP2 030343Z 10008KT 24/17 A3009 RMK A01 T02430168  RH  063%=      5-min Rain = 0
KSP2 030344Z 09007KT 24/17 A3009 RMK A01 T02430168  RH  063%=      5-min Rain = 0
KSP2 030345Z 08006KT 24/17 A3009 RMK A01 T02440168  RH  062%=      5-min Rain = 0
KSP2 030346Z 07006KT 25/17 A3009 RMK A01 T02450168  RH  062%=      5-min Rain = 0
KSP2 030347Z 06006KT 25/17 A3009 RMK A01 T02450168  RH  062%=      5-min Rain = 0
KSP2 030348Z 06007KT 25/17 A3009 RMK A01 T02450168  RH  062%=      5-min Rain = 0
KSP2 030349Z 05007KT 25/17 A3009 RMK A01 T02450167  RH  062%=      5-min Rain = 0
KSP2 030350Z 05006KT 25/17 A3009 RMK A01 T02460167  RH  062%=      5-min Rain = 0
KSP2 030351Z 05006KT 25/17 A3009 RMK A01 T02460168  RH  062%=      5-min Rain = 0
KSP2 030352Z 05004KT 25/17 A3009 RMK A01 T02460168  RH  062%=      5-min Rain = 0
KSP2 030353Z 05005KT 25/17 A3009 RMK A01 T02460168  RH  062%=      5-min Rain = 0
KSP2 030354Z 04005KT 25/17 A3009 RMK A01 T02460168  RH  062%=      5-min Rain = 0
KSP2 030355Z 03005KT 25/17 A3009 RMK A01 T02460168  RH  062%=      5-min Rain = 0
KSP2 030356Z 03004KT 25/17 A3009 RMK A01 T02460168  RH  062%=      5-min Rain = 0
KSP2 030357Z 05004KT 25/17 A3009 RMK A01 T02460168  RH  062%=      5-min Rain = 0
KSP2 030358Z 05005KT 25/17 A3009 RMK A01 T02460168  RH  062%=      5-min Rain = 0
KSP2 030359Z 05004KT 25/17 A3009 RMK A01 T02460168  RH  062%=      5-min Rain = 0
KSP2 030400Z 05006KT 25/17 A3009 RMK A01 T02460168  RH  062%=      5-min Rain = 0
KSP2 030401Z 04006KT 25/17 A3009 RMK A01 T02460168  RH  062%=      5-min Rain = 0
KSP2 030402Z 04005KT 25/17 A3009 RMK A01 T02470168  RH  062%=      5-min Rain = 0
KSP2 030403Z 04004KT 25/17 A3009 RMK A01 T02460168  RH  062%=      5-min Rain = 0
KSP2 030404Z 05004KT 25/17 A301 RMK A01 T02460168  RH  062%=      5-min Rain = 0
KSP2 030405Z 05004KT 25/17 A301 RMK A01 T02460168  RH  062%=      5-min Rain = 0
KSP2 030406Z 06004KT 25/17 A301 RMK A01 T02470169  RH  062%=      5-min Rain = 0
KSP2 030407Z 05004KT 25/17 A301 RMK A01 T02460169  RH  062%=      5-min Rain = 0
KSP2 030408Z 05003KT 25/17 A301 RMK A01 T02450169  RH  062%=      5-min Rain = 0
KSP2 030409Z 05003KT 25/17 A301 RMK A01 T02450168  RH  062%=      5-min Rain = 0
KSP2 030410Z 05004KT 25/17 A301 RMK A01 T02450168  RH  062%=      5-min Rain = 0
KSP2 030411Z 06004KT 25/17 A301 RMK A01 T02450168  RH  062%=      5-min Rain = 0
KSP2 030412Z 07005KT 25/17 A301 RMK A01 T02450168  RH  062%=      5-min Rain = 0
KSP2 030413Z 07006KT 25/17 A301 RMK A01 T02450168  RH  062%=      5-min Rain = 0
KSP2 030414Z 08006KT 24/17 A301 RMK A01 T02440169  RH  063%=      5-min Rain = 0
KSP2 030415Z 08006KT 24/17 A301 RMK A01 T02440169  RH  063%=      5-min Rain = 0
KSP2 030416Z 08006KT 24/17 A301 RMK A01 T02430169  RH  063%=      5-min Rain = 0
KSP2 030417Z 07006KT 24/17 A301 RMK A01 T02430169  RH  063%=      5-min Rain = 0
KSP2 030418Z 07006KT 24/17 A301 RMK A01 T02430169  RH  063%=      5-min Rain = 0
KSP2 030419Z 07006KT 24/17 A301 RMK A01 T02430169  RH  063%=      5-min Rain = 0
KSP2 030420Z 07005KT 24/17 A301 RMK A01 T02430169  RH  063%=      5-min Rain = 0
KSP2 030421Z 07005KT 24/17 A301 RMK A01 T02430169  RH  063%=      5-min Rain = 0
KSP2 030422Z 07005KT 24/17 A301 RMK A01 T02430168  RH  063%=      5-min Rain = 0
KSP2 030423Z 06005KT 24/17 A301 RMK A01 T02430168  RH  063%=      5-min Rain = 0
KSP2 030424Z 06005KT 24/17 A301 RMK A01 T02430168  RH  063%=      5-min Rain = 0
KSP2 030425Z 07004KT 24/17 A301 RMK A01 T02430168  RH  063%=      5-min Rain = 0
KSP2 030426Z 07004KT 24/17 A301 RMK A01 T02430168  RH  063%=      5-min Rain = 0
KSP2 030427Z 07004KT 24/17 A301 RMK A01 T02430168  RH  063%=      5-min Rain = 0
KSP2 030428Z 07004KT 24/17 A301 RMK A01 T02420168  RH  063%=      5-min Rain = 0
KSP2 030429Z 07003KT 24/17 A301 RMK A01 T02420169  RH  063%=      5-min Rain = 0
KSP2 030430Z 07003KT 24/17 A301 RMK A01 T02420168  RH  063%=      5-min Rain = 0
KSP2 030431Z 08003KT 24/17 A301 RMK A01 T02420168  RH  063%=      5-min Rain = 0
KSP2 030432Z 09003KT 24/17 A301 RMK A01 T02420169  RH  063%=      5-min Rain = 0
KSP2 030433Z 09003KT 24/17 A301 RMK A01 T02420169  RH  064%=      5-min Rain = 0
KSP2 030434Z 10003KT 24/17 A301 RMK A01 T02420169  RH  064%=      5-min Rain = 0
KSP2 030435Z 10004KT 24/17 A301 RMK A01 T02420169  RH  064%=      5-min Rain = 0
KSP2 030436Z 11004KT 24/17 A301 RMK A01 T02420169  RH  064%=      5-min Rain = 0
KSP2 030437Z 11004KT 24/17 A301 RMK A01 T02420169  RH  063%=      5-min Rain = 0
KSP2 030438Z 10004KT 24/17 A301 RMK A01 T02440169  RH  063%=      5-min Rain = 0
KSP2 030439Z 10004KT 24/17 A301 RMK A01 T02440169  RH  063%=      5-min Rain = 0
KSP2 030440Z 09004KT 24/17 A301 RMK A01 T02440169  RH  063%=      5-min Rain = 0
KSP2 030441Z 09004KT 24/17 A301 RMK A01 T02440169  RH  063%=      5-min Rain = 0
KSP2 030442Z 09003KT 24/17 A301 RMK A01 T02440169  RH  063%=      5-min Rain = 0
KSP2 030443Z 08003KT 25/17 A301 RMK A01 T02450169  RH  063%=      5-min Rain = 0
KSP2 030444Z 08003KT 25/17 A301 RMK A01 T02450169  RH  063%=      5-min Rain = 0
KSP2 030445Z 07004KT 25/17 A301 RMK A01 T02450169  RH  063%=      5-min Rain = 0
KSP2 030446Z 06004KT 25/17 A301 RMK A01 T02450169  RH  063%=      5-min Rain = 0
KSP2 030447Z 06004KT 25/17 A301 RMK A01 T02450169  RH  063%=      5-min Rain = 0
KSP2 030448Z 06003KT 25/17 A301 RMK A01 T02450169  RH  063%=      5-min Rain = 0
KSP2 030449Z 06003KT 25/17 A301 RMK A01 T02450169  RH  063%=      5-min Rain = 0
KSP2 030450Z 06004KT 25/17 A301 RMK A01 T02450169  RH  063%=      5-min Rain = 0
KSP2 030451Z 05003KT 25/17 A301 RMK A01 T02450169  RH  063%=      5-min Rain = 0
KSP2 030452Z 05004KT 25/17 A301 RMK A01 T02450170  RH  063%=      5-min Rain = 0
KSP2 030453Z 05004KT 25/17 A301 RMK A01 T02460169  RH  063%=      5-min Rain = 0
KSP2 030454Z 06003KT 25/17 A301 RMK A01 T02450169  RH  062%=      5-min Rain = 0
KSP2 030455Z 06002KT 25/17 A301 RMK A01 T02460169  RH  062%=      5-min Rain = 0
KSP2 030456Z 06003KT 25/17 A301 RMK A01 T02460170  RH  062%=      5-min Rain = 0
KSP2 030457Z 05003KT 25/17 A301 RMK A01 T02460170  RH  063%=      5-min Rain = 0
KSP2 030458Z 06003KT 25/17 A301 RMK A01 T02460170  RH  063%=      5-min Rain = 0
KSP2 030459Z 06003KT 25/17 A301 RMK A01 T02460170  RH  063%=      5-min Rain = 0

Page generated in 0.431 seconds.